PORTS® Data Listing: 8720233 Blount Island Command, FL

CO-OPS RAW PORTS DATA

************************      PRELIMINARY DATA      ************************** 

     THIS RAW DATA HAS NOT BEEN SUBJECT TO THE NATIONAL OCEAN SERVICE'S        
     QUALITY CONTROL OR QUALITY ASSURANCE PROCEDURES AND DOES NOT MEET         
     THE CRITERIA AND STANDARDS OF OFFICIAL NATIONAL OCEAN SERVICE             
     DATA.  IT IS RELEASED FOR LIMITED PUBLIC USE AS PRELIMINARY DATA TO       
     BE USED ONLY WITH APPROPRIATE CAUTION.                                    

************************      PRELIMINARY DATA      ************************** 


       CD   -   Calendar date
       T    -   Time
       TZ   -   Timezone
       PW   -   Predicted water level (feet above MLLW)
       OW   -   Observed water level (feet above MLLW)
       WS   -   Wind speed (knots)
       WD   -   Wind direction (degrees true)
       WG   -   Wind gust (knots)
       AT   -   Air temperature (degrees farenheit)
       WT   -   Water temperature (degrees farenheit)
       AP   -   Air pressure (millibars)
       SA   -   Salinty (PSU - Practical Salinity Units)
       SG   -   Specific gravity
       RH   -   Relative humidity
       AG   -   Air gap (feet)
       VI   -   Visibility (nautical miles)

       ** NOTE **
       A variable that has its data fields filled with "9"s, indicates that
       data was not collected for that sample period.
       **********


STATION NAME: Blount Island Command (8720233)
****************************************************************************************************
    CD       T    TZ    PW     OW    WS   WD   WG    AT    WT    AP    SA    SG     RH    AG   VI
****************************************************************************************************
2019/09/15 08:18 EDT  -99.99 -99.99   11   65   23  77.5 -99.9 1017.7 -9.9 -9.999 100.0 -99.99  0.38
2019/09/15 08:24 EDT  -99.99 -99.99    7   75   11  76.1 -99.9 1017.5 -9.9 -9.999 100.0 -99.99  0.80
2019/09/15 08:30 EDT  -99.99 -99.99    6   41    8  76.1 -99.9 1017.3 -9.9 -9.999 100.0 -99.99  5.40
2019/09/15 08:36 EDT  -99.99 -99.99    7   15    8  76.8 -99.9 1017.3 -9.9 -9.999 100.0 -99.99  5.40
2019/09/15 08:42 EDT  -99.99 -99.99   14   42   18  77.7 -99.9 1017.4 -9.9 -9.999 100.0 -99.99  5.40
2019/09/15 08:48 EDT  -99.99 -99.99    9   56   14  78.6 -99.9 1017.4 -9.9 -9.999 100.0 -99.99  5.40
2019/09/15 08:54 EDT  -99.99 -99.99    7   53   10  78.6 -99.9 1017.2 -9.9 -9.999 100.0 -99.99  5.40
2019/09/15 09:00 EDT  -99.99 -99.99    9   39   11  79.5 -99.9 1017.2 -9.9 -9.999 100.0 -99.99  5.40
2019/09/15 09:06 EDT  -99.99 -99.99    9   27   12  80.6 -99.9 1017.3 -9.9 -9.999 100.0 -99.99  5.40
2019/09/15 09:12 EDT  -99.99 -99.99   10   22   16  81.1 -99.9 1017.4 -9.9 -9.999 100.0 -99.99  5.40
2019/09/15 09:18 EDT  -99.99 -99.99    9   11   14  81.3 -99.9 1017.4 -9.9 -9.999 100.0 -99.99  5.40
2019/09/15 09:24 EDT  -99.99 -99.99   11   24   17  81.7 -99.9 1017.5 -9.9 -9.999 100.0 -99.99  5.40
2019/09/15 09:30 EDT  -99.99 -99.99   11   19   15  82.2 -99.9 1017.5 -9.9 -9.999 100.0 -99.99  5.40
2019/09/15 09:36 EDT  -99.99 -99.99   13   29   17  82.0 -99.9 1017.3 -9.9 -9.999 100.0 -99.99  5.40
2019/09/15 09:42 EDT  -99.99 -99.99   14   31   18  82.0 -99.9 1017.3 -9.9 -9.999 100.0 -99.99  5.40
2019/09/15 09:48 EDT  -99.99 -99.99   16   17   25  81.7 -99.9 1017.5 -9.9 -9.999  98.8 -99.99  1.95
2019/09/15 09:54 EDT  -99.99 -99.99   12   16   18  79.2 -99.9 1017.3 -9.9 -9.999  97.9 -99.99  1.89
2019/09/15 10:00 EDT  -99.99 -99.99    7   29   14  79.0 -99.9 1017.1 -9.9 -9.999 100.0 -99.99  5.40
2019/09/15 10:06 EDT  -99.99 -99.99    7   36   12  80.2 -99.9 1017.0 -9.9 -9.999 100.0 -99.99  5.40
2019/09/15 10:12 EDT  -99.99 -99.99    9    3   12  81.5 -99.9 1017.1 -9.9 -9.999 100.0 -99.99  5.40
2019/09/15 10:18 EDT  -99.99 -99.99   12   25   16  81.9 -99.9 1017.3 -9.9 -9.999 100.0 -99.99  5.40
2019/09/15 10:24 EDT  -99.99 -99.99   12   36   17  82.8 -99.9 1017.4 -9.9 -9.999 100.0 -99.99  5.40
2019/09/15 10:30 EDT  -99.99 -99.99   14   39   19  83.5 -99.9 1017.4 -9.9 -9.999 100.0 -99.99  5.40
2019/09/15 10:36 EDT  -99.99 -99.99   14   30   20  83.3 -99.9 1017.2 -9.9 -9.999 100.0 -99.99  5.40
2019/09/15 10:42 EDT  -99.99 -99.99   14   37   18  83.5 -99.9 1017.1 -9.9 -9.999 100.0 -99.99  5.40
2019/09/15 10:48 EDT  -99.99 -99.99   16   23   22  83.3 -99.9 1017.1 -9.9 -9.999  99.1 -99.99  5.40
2019/09/15 10:54 EDT  -99.99 -99.99   16   27   22  83.3 -99.9 1017.1 -9.9 -9.999  98.6 -99.99  5.40
2019/09/15 11:00 EDT  -99.99 -99.99   12   28   19  83.1 -99.9 1017.2 -9.9 -9.999  96.6 -99.99  5.40
2019/09/15 11:06 EDT  -99.99 -99.99   15   24   19  83.1 -99.9 1017.2 -9.9 -9.999  97.9 -99.99  5.40
2019/09/15 11:12 EDT  -99.99 -99.99   15   24   20  83.1 -99.9 1017.3 -9.9 -9.999  99.7 -99.99  5.40
2019/09/15 11:18 EDT  -99.99 -99.99   13   27   19  83.7 -99.9 1017.2 -9.9 -9.999  97.3 -99.99  5.40
2019/09/15 11:24 EDT  -99.99 -99.99   20   40   25  84.0 -99.9 1017.2 -9.9 -9.999  97.6 -99.99  5.40
2019/09/15 11:30 EDT  -99.99 -99.99   15   39   19  83.7 -99.9 1017.3 -9.9 -9.999  94.0 -99.99  5.40
2019/09/15 11:36 EDT  -99.99 -99.99   17   41   25  84.6 -99.9 1017.4 -9.9 -9.999  92.5 -99.99  5.40
2019/09/15 11:42 EDT  -99.99 -99.99   16   35   24  84.2 -99.9 1017.3 -9.9 -9.999  91.8 -99.99  5.40
2019/09/15 11:48 EDT  -99.99 -99.99   19   40   25  84.6 -99.9 1017.2 -9.9 -9.999  91.6 -99.99  5.40
2019/09/15 11:54 EDT  -99.99 -99.99   17   36   23  84.2 -99.9 1017.2 -9.9 -9.999  91.0 -99.99  5.40
2019/09/15 12:00 EDT  -99.99 -99.99   17   42   23  84.4 -99.9 1017.1 -9.9 -9.999  91.1 -99.99  5.40
2019/09/15 12:06 EDT  -99.99 -99.99   16   59   22  84.2 -99.9 1017.1 -9.9 -9.999  92.1 -99.99  5.40
2019/09/15 12:12 EDT  -99.99 -99.99   15   40   19  82.2 -99.9 1017.2 -9.9 -9.999  95.1 -99.99  2.47
2019/09/15 12:18 EDT  -99.99 -99.99   10   43   15  82.0 -99.9 1017.1 -9.9 -9.999  98.1 -99.99  5.40
2019/09/15 12:24 EDT  -99.99 -99.99   15   38   21  83.7 -99.9 1017.0 -9.9 -9.999  97.6 -99.99  5.40
2019/09/15 12:30 EDT  -99.99 -99.99   16   40   22  84.2 -99.9 1017.0 -9.9 -9.999  93.7 -99.99  5.40
2019/09/15 12:36 EDT  -99.99 -99.99   15   38   23  84.2 -99.9 1016.9 -9.9 -9.999  91.5 -99.99  5.40
2019/09/15 12:42 EDT  -99.99 -99.99   17   34   21  84.6 -99.9 1016.9 -9.9 -9.999  90.6 -99.99  5.40
2019/09/15 12:48 EDT  -99.99 -99.99   18   40   26  84.6 -99.9 1016.9 -9.9 -9.999  89.7 -99.99  5.40
2019/09/15 12:54 EDT  -99.99 -99.99   18   43   24  84.7 -99.9 1017.1 -9.9 -9.999  89.6 -99.99  5.40
2019/09/15 13:00 EDT  -99.99 -99.99   14   32   21  84.6 -99.9 1017.0 -9.9 -9.999  90.3 -99.99  5.40
2019/09/15 13:06 EDT  -99.99 -99.99   20   38   25  85.3 -99.9 1016.9 -9.9 -9.999  91.2 -99.99  5.40
2019/09/15 13:12 EDT  -99.99 -99.99   18   30   22  84.7 -99.9 1016.9 -9.9 -9.999  90.2 -99.99  5.40
2019/09/15 13:18 EDT  -99.99 -99.99   13   13   22  84.2 -99.9 1016.8 -9.9 -9.999  92.0 -99.99  5.40
2019/09/15 13:24 EDT  -99.99 -99.99   17   31   24  83.8 -99.9 1016.7 -9.9 -9.999  91.9 -99.99  5.40
2019/09/15 13:30 EDT  -99.99 -99.99   17   38   23  84.4 -99.9 1016.6 -9.9 -9.999  89.0 -99.99  5.40
2019/09/15 13:36 EDT  -99.99 -99.99   17   33   23  85.3 -99.9 1016.6 -9.9 -9.999  87.0 -99.99  5.40
2019/09/15 13:42 EDT  -99.99 -99.99   17   28   23  84.6 -99.9 1016.5 -9.9 -9.999  89.7 -99.99  5.40
2019/09/15 13:48 EDT  -99.99 -99.99   17   36   23  84.4 -99.9 1016.5 -9.9 -9.999  91.1 -99.99  5.40
2019/09/15 13:54 EDT  -99.99 -99.99   19   31   26  84.4 -99.9 1016.5 -9.9 -9.999  91.3 -99.99  5.40
2019/09/15 14:00 EDT  -99.99 -99.99   18   37   22  84.4 -99.9 1016.5 -9.9 -9.999  90.2 -99.99  5.40
2019/09/15 14:06 EDT  -99.99 -99.99   18   50   33  85.1 -99.9 1016.4 -9.9 -9.999  89.4 -99.99  5.40
2019/09/15 14:12 EDT  -99.99 -99.99   14   47   20  81.3 -99.9 1016.6 -9.9 -9.999  93.4 -99.99  3.07
2019/09/15 14:18 EDT  -99.99 -99.99   18   36   22  81.7 -99.9 1016.4 -9.9 -9.999  99.4 -99.99  5.40
2019/09/15 14:24 EDT  -99.99 -99.99   17   37   22  82.4 -99.9 1016.4 -9.9 -9.999  99.6 -99.99  5.40
2019/09/15 14:30 EDT  -99.99 -99.99   15   38   21  83.1 -99.9 1016.3 -9.9 -9.999  96.4 -99.99  5.40
2019/09/15 14:36 EDT  -99.99 -99.99   18   33   23  83.7 -99.9 1016.2 -9.9 -9.999  91.0 -99.99  5.40
2019/09/15 14:42 EDT  -99.99 -99.99   18   28   24  83.7 -99.9 1016.0 -9.9 -9.999  86.2 -99.99  5.40
2019/09/15 14:48 EDT  -99.99 -99.99   16   27   21  83.8 -99.9 1015.9 -9.9 -9.999  85.4 -99.99  5.40
2019/09/15 14:54 EDT  -99.99 -99.99   16   29   20  83.8 -99.9 1015.8 -9.9 -9.999  84.1 -99.99  5.40
2019/09/15 15:00 EDT  -99.99 -99.99   12   32   22  84.6 -99.9 1015.9 -9.9 -9.999  81.3 -99.99  5.40
2019/09/15 15:06 EDT  -99.99 -99.99   14   34   20  83.3 -99.9 1015.9 -9.9 -9.999  84.9 -99.99  5.40
2019/09/15 15:12 EDT  -99.99 -99.99   14   28   19  83.5 -99.9 1015.9 -9.9 -9.999  87.5 -99.99  5.40
2019/09/15 15:18 EDT  -99.99 -99.99   14   21   19  83.3 -99.9 1015.9 -9.9 -9.999  86.6 -99.99  5.40
2019/09/15 15:24 EDT  -99.99 -99.99   14   14   17  82.6 -99.9 1015.9 -9.9 -9.999  88.5 -99.99  5.40
2019/09/15 15:30 EDT  -99.99 -99.99   12   15   17  82.6 -99.9 1015.8 -9.9 -9.999  89.8 -99.99  5.40
2019/09/15 15:36 EDT  -99.99 -99.99   14   25   19  82.4 -99.9 1015.8 -9.9 -9.999  89.9 -99.99  5.40
2019/09/15 15:42 EDT  -99.99 -99.99   13    5   17  82.8 -99.9 1015.8 -9.9 -9.999  89.4 -99.99  5.40
2019/09/15 15:48 EDT  -99.99 -99.99   10   17   15  82.9 -99.9 1015.9 -9.9 -9.999  90.1 -99.99  5.40
2019/09/15 15:54 EDT  -99.99 -99.99   13   23   21  82.9 -99.9 1015.8 -9.9 -9.999  91.3 -99.99  5.40
2019/09/15 16:00 EDT  -99.99 -99.99   13   24   17  82.9 -99.9 1015.6 -9.9 -9.999  91.4 -99.99  5.40
2019/09/15 16:06 EDT  -99.99 -99.99   15   25   21  82.8 -99.9 1015.5 -9.9 -9.999  91.0 -99.99  5.40
2019/09/15 16:12 EDT  -99.99 -99.99   14   33   20  83.3 -99.9 1015.6 -9.9 -9.999  89.6 -99.99  5.40
2019/09/15 16:18 EDT  -99.99 -99.99   13   20   25  84.2 -99.9 1015.7 -9.9 -9.999  87.1 -99.99  5.40
2019/09/15 16:24 EDT  -99.99 -99.99   15   19   24  83.7 -99.9 1015.5 -9.9 -9.999  87.9 -99.99  5.40
2019/09/15 16:30 EDT  -99.99 -99.99   13   20   20  83.3 -99.9 1015.4 -9.9 -9.999  89.4 -99.99  5.40
2019/09/15 16:36 EDT  -99.99 -99.99   13   21   22  83.5 -99.9 1015.4 -9.9 -9.999  90.3 -99.99  5.40
2019/09/15 16:42 EDT  -99.99 -99.99   15   24   20  83.3 -99.9 1015.5 -9.9 -9.999  89.3 -99.99  5.40
2019/09/15 16:48 EDT  -99.99 -99.99   17   27   20  82.9 -99.9 1015.5 -9.9 -9.999  91.1 -99.99  5.40
2019/09/15 16:54 EDT  -99.99 -99.99   13   30   24  83.7 -99.9 1015.5 -9.9 -9.999  90.5 -99.99  5.40
2019/09/15 17:00 EDT  -99.99 -99.99   13   16   20  84.0 -99.9 1015.5 -9.9 -9.999  90.5 -99.99  5.40
2019/09/15 17:06 EDT  -99.99 -99.99   17   33   24  83.5 -99.9 1015.4 -9.9 -9.999  91.4 -99.99  5.40
2019/09/15 17:12 EDT  -99.99 -99.99   11   51   17  82.9 -99.9 1015.5 -9.9 -9.999  92.8 -99.99  5.40
2019/09/15 17:18 EDT  -99.99 -99.99    9   53   14  81.5 -99.9 1015.5 -9.9 -9.999  93.9 -99.99  5.40
2019/09/15 17:24 EDT  -99.99 -99.99   11   50   15  81.9 -99.9 1015.5 -9.9 -9.999  96.0 -99.99  5.40
2019/09/15 17:30 EDT  -99.99 -99.99   14   23   20  81.9 -99.9 1015.4 -9.9 -9.999  97.4 -99.99  5.40
2019/09/15 17:36 EDT  -99.99 -99.99   14   29   20  82.4 -99.9 1015.4 -9.9 -9.999  97.9 -99.99  5.40
2019/09/15 17:42 EDT  -99.99 -99.99   13   24   18  82.6 -99.9 1015.4 -9.9 -9.999  96.7 -99.99  5.40
2019/09/15 17:48 EDT  -99.99 -99.99   14   31   21  82.8 -99.9 1015.3 -9.9 -9.999  95.4 -99.99  5.40
2019/09/15 17:54 EDT  -99.99 -99.99   14   18   19  82.8 -99.9 1015.4 -9.9 -9.999  95.4 -99.99  5.40
2019/09/15 18:00 EDT  -99.99 -99.99   16   33   25  82.8 -99.9 1015.5 -9.9 -9.999  95.6 -99.99  5.40
2019/09/15 18:06 EDT  -99.99 -99.99   15   30   26  82.8 -99.9 1015.6 -9.9 -9.999  94.7 -99.99  5.40
2019/09/15 18:12 EDT  -99.99 -99.99   10   23   19  82.8 -99.9 1015.7 -9.9 -9.999  94.0 -99.99  5.40
2019/09/15 18:18 EDT  -99.99 -99.99   14   27   21  83.1 -99.9 1015.7 -9.9 -9.999  93.7 -99.99  5.40
2019/09/15 18:24 EDT  -99.99 -99.99   15   25   21  82.8 -99.9 1015.7 -9.9 -9.999  94.0 -99.99  5.40
2019/09/15 18:30 EDT  -99.99 -99.99   15   28   21  82.8 -99.9 1015.7 -9.9 -9.999  94.1 -99.99  5.40
2019/09/15 18:36 EDT  -99.99 -99.99   15   33   19  82.8 -99.9 1015.7 -9.9 -9.999  94.2 -99.99  5.40
2019/09/15 18:42 EDT  -99.99 -99.99   14   31   19  82.9 -99.9 1015.8 -9.9 -9.999  93.3 -99.99  5.40
2019/09/15 18:48 EDT  -99.99 -99.99   12   30   16  82.9 -99.9 1015.8 -9.9 -9.999  91.8 -99.99  5.40
2019/09/15 18:54 EDT  -99.99 -99.99   13   21   18  82.9 -99.9 1015.9 -9.9 -9.999  91.5 -99.99  5.40
2019/09/15 19:00 EDT  -99.99 -99.99   13   35   20  82.8 -99.9 1015.9 -9.9 -9.999  91.7 -99.99  5.40
2019/09/15 19:06 EDT  -99.99 -99.99   13   29   18  82.8 -99.9 1015.7 -9.9 -9.999  92.3 -99.99  5.40
2019/09/15 19:12 EDT  -99.99 -99.99   12   24   21  82.6 -99.9 1015.7 -9.9 -9.999  93.5 -99.99  5.40
2019/09/15 19:18 EDT  -99.99 -99.99   13   25   18  82.6 -99.9 1015.7 -9.9 -9.999  93.5 -99.99  5.40
2019/09/15 19:24 EDT  -99.99 -99.99    9   26   14  82.4 -99.9 1015.7 -9.9 -9.999  93.6 -99.99  5.40
2019/09/15 19:30 EDT  -99.99 -99.99   10   25   14  82.4 -99.9 1015.6 -9.9 -9.999  94.2 -99.99  5.40
2019/09/15 19:36 EDT  -99.99 -99.99    9   24   12  82.2 -99.9 1015.7 -9.9 -9.999  94.8 -99.99  5.40
2019/09/15 19:42 EDT  -99.99 -99.99    8   19   12  82.2 -99.9 1015.6 -9.9 -9.999  95.2 -99.99  5.40
2019/09/15 19:48 EDT  -99.99 -99.99   11   26   13  82.0 -99.9 1015.5 -9.9 -9.999  95.5 -99.99  5.40
2019/09/15 19:54 EDT  -99.99 -99.99    6   15   13  82.0 -99.9 1015.4 -9.9 -9.999  94.8 -99.99  5.40
2019/09/15 20:00 EDT  -99.99 -99.99    8   28   13  82.0 -99.9 1015.5 -9.9 -9.999  94.1 -99.99  5.40
2019/09/15 20:06 EDT  -99.99 -99.99    8   22   14  82.0 -99.9 1015.4 -9.9 -9.999  94.7 -99.99  5.40
2019/09/15 20:12 EDT  -99.99 -99.99   11   23   13  81.9 -99.9 1015.4 -9.9 -9.999  94.6 -99.99  5.40
2019/09/15 20:18 EDT  -99.99 -99.99   10   20   14  81.9 -99.9 1015.4 -9.9 -9.999  94.3 -99.99  5.40
2019/09/15 20:24 EDT  -99.99 -99.99   10   26   17  82.0 -99.9 1015.5 -9.9 -9.999  95.2 -99.99  5.40
2019/09/15 20:30 EDT  -99.99 -99.99   13   26   15  82.0 -99.9 1015.6 -9.9 -9.999  96.2 -99.99  5.40
2019/09/15 20:36 EDT  -99.99 -99.99   10   26   17  82.0 -99.9 1015.6 -9.9 -9.999  96.3 -99.99  5.40
2019/09/15 20:42 EDT  -99.99 -99.99    8   17   16  82.0 -99.9 1015.6 -9.9 -9.999  96.0 -99.99  5.40
2019/09/15 20:48 EDT  -99.99 -99.99   11   20   16  82.0 -99.9 1015.6 -9.9 -9.999  95.9 -99.99  5.40
2019/09/15 20:54 EDT  -99.99 -99.99    9   20   13  82.0 -99.9 1015.6 -9.9 -9.999  95.3 -99.99  5.40
2019/09/15 21:00 EDT  -99.99 -99.99   10   17   14  82.0 -99.9 1015.7 -9.9 -9.999  95.0 -99.99  5.40
2019/09/15 21:06 EDT  -99.99 -99.99    6   19   11  82.2 -99.9 1015.7 -9.9 -9.999  94.7 -99.99  5.40
2019/09/15 21:12 EDT  -99.99 -99.99    9   30   11  82.0 -99.9 1015.7 -9.9 -9.999  95.3 -99.99  5.40
2019/09/15 21:18 EDT  -99.99 -99.99   10   27   13  82.0 -99.9 1015.8 -9.9 -9.999  96.0 -99.99  5.40
2019/09/15 21:24 EDT  -99.99 -99.99    9   27   12  82.0 -99.9 1015.9 -9.9 -9.999  96.4 -99.99  5.40
2019/09/15 21:30 EDT  -99.99 -99.99   10   26   14  82.2 -99.9 1015.9 -9.9 -9.999  96.5 -99.99  5.40
2019/09/15 21:36 EDT  -99.99 -99.99    7   20   12  82.2 -99.9 1016.0 -9.9 -9.999  96.2 -99.99  5.40
2019/09/15 21:42 EDT  -99.99 -99.99    9   26   11  82.2 -99.9 1016.0 -9.9 -9.999  96.0 -99.99  5.40
2019/09/15 21:48 EDT  -99.99 -99.99    8   19   10  82.2 -99.9 1016.0 -9.9 -9.999  96.1 -99.99  5.40
2019/09/15 21:54 EDT  -99.99 -99.99    7   17   11  82.2 -99.9 1016.1 -9.9 -9.999  96.1 -99.99  5.40
2019/09/15 22:00 EDT  -99.99 -99.99    9   15   15  82.2 -99.9 1016.1 -9.9 -9.999  95.8 -99.99  5.40
2019/09/15 22:06 EDT  -99.99 -99.99    8   11   11  82.2 -99.9 1016.2 -9.9 -9.999  94.9 -99.99  5.40
2019/09/15 22:12 EDT  -99.99 -99.99    8   12   12  82.4 -99.9 1016.1 -9.9 -9.999  94.9 -99.99  5.40
2019/09/15 22:18 EDT  -99.99 -99.99    9    9   11  82.4 -99.9 1016.1 -9.9 -9.999  95.0 -99.99  5.40
2019/09/15 22:24 EDT  -99.99 -99.99    8   10   12  82.4 -99.9 1016.0 -9.9 -9.999  95.5 -99.99  5.40
2019/09/15 22:30 EDT  -99.99 -99.99    8   17   12  82.2 -99.9 1015.9 -9.9 -9.999  96.0 -99.99  5.40
2019/09/15 22:36 EDT  -99.99 -99.99    8   15   11  82.4 -99.9 1015.9 -9.9 -9.999  96.4 -99.99  5.40
2019/09/15 22:42 EDT  -99.99 -99.99    5   13   10  82.2 -99.9 1015.9 -9.9 -9.999  96.8 -99.99  5.40
2019/09/15 22:48 EDT  -99.99 -99.99    7    7    9  82.2 -99.9 1016.0 -9.9 -9.999  97.2 -99.99  5.40
2019/09/15 22:54 EDT  -99.99 -99.99    7   24   10  82.2 -99.9 1016.0 -9.9 -9.999  97.6 -99.99  5.40
2019/09/15 23:00 EDT  -99.99 -99.99    8   26   10  82.2 -99.9 1015.9 -9.9 -9.999  97.6 -99.99  5.40
2019/09/15 23:06 EDT  -99.99 -99.99    6   14    9  82.2 -99.9 1015.8 -9.9 -9.999  97.4 -99.99  5.40
2019/09/15 23:12 EDT  -99.99 -99.99    7   11   12  82.2 -99.9 1015.7 -9.9 -9.999  97.6 -99.99  5.40
2019/09/15 23:18 EDT  -99.99 -99.99    9   11   12  82.2 -99.9 1015.7 -9.9 -9.999  98.0 -99.99  5.40
2019/09/15 23:24 EDT  -99.99 -99.99    7    8   10  81.9 -99.9 1015.8 -9.9 -9.999  99.2 -99.99  2.99
2019/09/15 23:30 EDT  -99.99 -99.99    8    6   10  81.5 -99.9 1015.8 -9.9 -9.999 100.0 -99.99  5.40
2019/09/15 23:36 EDT  -99.99 -99.99   10    7   13  81.7 -99.9 1015.7 -9.9 -9.999 100.0 -99.99  5.40
2019/09/15 23:42 EDT  -99.99 -99.99    8   14   12  81.7 -99.9 1015.7 -9.9 -9.999 100.0 -99.99  5.40
2019/09/15 23:48 EDT  -99.99 -99.99    8    5   13  81.7 -99.9 1015.7 -9.9 -9.999 100.0 -99.99  5.40
2019/09/15 23:54 EDT  -99.99 -99.99    8    9   10  81.7 -99.9 1015.8 -9.9 -9.999 100.0 -99.99  5.40
2019/09/16 00:00 EDT  -99.99 -99.99    8   11   11  81.5 -99.9 1015.8 -9.9 -9.999 100.0 -99.99  5.40
2019/09/16 00:06 EDT  -99.99 -99.99    7   10   10  81.7 -99.9 1015.8 -9.9 -9.999 100.0 -99.99  5.40
2019/09/16 00:12 EDT  -99.99 -99.99   10    5   12  81.5 -99.9 1015.7 -9.9 -9.999 100.0 -99.99  5.40
2019/09/16 00:18 EDT  -99.99 -99.99    9    6   12  81.5 -99.9 1015.6 -9.9 -9.999 100.0 -99.99  5.40
2019/09/16 00:24 EDT  -99.99 -99.99    9    8   14  81.5 -99.9 1015.7 -9.9 -9.999 100.0 -99.99  5.40
2019/09/16 00:30 EDT  -99.99 -99.99    8    8   12  81.7 -99.9 1015.6 -9.9 -9.999 100.0 -99.99  5.40
2019/09/16 00:36 EDT  -99.99 -99.99    9    6   13  81.7 -99.9 1015.6 -9.9 -9.999 100.0 -99.99  5.40
2019/09/16 00:42 EDT  -99.99 -99.99    9   13   12  81.7 -99.9 1015.6 -9.9 -9.999 100.0 -99.99  5.40
2019/09/16 00:48 EDT  -99.99 -99.99    7   11   11  81.7 -99.9 1015.6 -9.9 -9.999 100.0 -99.99  5.40
2019/09/16 00:54 EDT  -99.99 -99.99    7    9   11  81.7 -99.9 1015.6 -9.9 -9.999 100.0 -99.99  5.40
2019/09/16 01:00 EDT  -99.99 -99.99    7    5   11  81.7 -99.9 1015.5 -9.9 -9.999 100.0 -99.99  5.40
2019/09/16 01:06 EDT  -99.99 -99.99    8    3   11  81.7 -99.9 1015.4 -9.9 -9.999 100.0 -99.99  5.40
2019/09/16 01:12 EDT  -99.99 -99.99    7   11   10  81.7 -99.9 1015.4 -9.9 -9.999 100.0 -99.99  5.40
2019/09/16 01:18 EDT  -99.99 -99.99    7    2   11  81.7 -99.9 1015.6 -9.9 -9.999  99.9 -99.99  5.40
2019/09/16 01:24 EDT  -99.99 -99.99    8    8   11  81.7 -99.9 1015.6 -9.9 -9.999 100.0 -99.99  5.40
2019/09/16 01:30 EDT  -99.99 -99.99    6    6   10  81.7 -99.9 1015.7 -9.9 -9.999 100.0 -99.99  5.40
2019/09/16 01:36 EDT  -99.99 -99.99    6  351    8  81.7 -99.9 1015.7 -9.9 -9.999 100.0 -99.99  5.40
2019/09/16 01:42 EDT  -99.99 -99.99    3  336    6  81.3 -99.9 1015.7 -9.9 -9.999 100.0 -99.99  5.40
2019/09/16 01:48 EDT  -99.99 -99.99    4  351    7  80.4 -99.9 1015.6 -9.9 -9.999 100.0 -99.99  5.40
2019/09/16 01:54 EDT  -99.99 -99.99    5  358   11  80.2 -99.9 1015.5 -9.9 -9.999 100.0 -99.99  5.40
2019/09/16 02:00 EDT  -99.99 -99.99    8    9   11  80.6 -99.9 1015.4 -9.9 -9.999 100.0 -99.99  5.40
2019/09/16 02:06 EDT  -99.99 -99.99    9    8   11  81.3 -99.9 1015.3 -9.9 -9.999 100.0 -99.99  5.40
2019/09/16 02:12 EDT  -99.99 -99.99    8   11   12  81.3 -99.9 1015.4 -9.9 -9.999 100.0 -99.99  5.40
2019/09/16 02:18 EDT  -99.99 -99.99    4  342   10  81.5 -99.9 1015.4 -9.9 -9.999 100.0 -99.99  5.40
2019/09/16 02:24 EDT  -99.99 -99.99    5  327    6  81.0 -99.9 1015.4 -9.9 -9.999 100.0 -99.99  5.40
2019/09/16 02:30 EDT  -99.99 -99.99    6  317    8  80.1 -99.9 1015.3 -9.9 -9.999 100.0 -99.99  5.40
2019/09/16 02:36 EDT  -99.99 -99.99    6  325    8  79.5 -99.9 1015.3 -9.9 -9.999 100.0 -99.99  5.40
2019/09/16 02:42 EDT  -99.99 -99.99    6  331    8  79.3 -99.9 1015.2 -9.9 -9.999 100.0 -99.99  5.40
2019/09/16 02:48 EDT  -99.99 -99.99    7  332   10  79.2 -99.9 1015.1 -9.9 -9.999 100.0 -99.99  5.40
2019/09/16 02:54 EDT  -99.99 -99.99    7  334    9  79.0 -99.9 1015.1 -9.9 -9.999 100.0 -99.99  5.40
2019/09/16 03:00 EDT  -99.99 -99.99    7  339    8  78.8 -99.9 1015.1 -9.9 -9.999 100.0 -99.99  5.40
2019/09/16 03:06 EDT  -99.99 -99.99    7  341    9  78.8 -99.9 1015.0 -9.9 -9.999 100.0 -99.99  5.40
2019/09/16 03:12 EDT  -99.99 -99.99    6  337    9  78.6 -99.9 1014.9 -9.9 -9.999 100.0 -99.99  5.40
2019/09/16 03:18 EDT  -99.99 -99.99    4  344    8  78.6 -99.9 1014.9 -9.9 -9.999 100.0 -99.99  5.40
2019/09/16 03:24 EDT  -99.99 -99.99    8  344   10  78.8 -99.9 1014.9 -9.9 -9.999 100.0 -99.99  5.40
2019/09/16 03:30 EDT  -99.99 -99.99    7  347   10  79.0 -99.9 1014.9 -9.9 -9.999 100.0 -99.99  5.40
2019/09/16 03:36 EDT  -99.99 -99.99    6  345    9  78.8 -99.9 1014.8 -9.9 -9.999 100.0 -99.99  5.40
2019/09/16 03:42 EDT  -99.99 -99.99    6  347    9  78.6 -99.9 1014.8 -9.9 -9.999 100.0 -99.99  5.40
2019/09/16 03:48 EDT  -99.99 -99.99    7  340   11  78.6 -99.9 1014.8 -9.9 -9.999 100.0 -99.99  5.40
2019/09/16 03:54 EDT  -99.99 -99.99    7  343   10  78.6 -99.9 1014.8 -9.9 -9.999 100.0 -99.99  5.40
2019/09/16 04:00 EDT  -99.99 -99.99    7  343   11  78.6 -99.9 1014.8 -9.9 -9.999 100.0 -99.99  5.40
2019/09/16 04:06 EDT  -99.99 -99.99    7  347   10  78.6 -99.9 1014.8 -9.9 -9.999 100.0 -99.99  5.40
2019/09/16 04:12 EDT  -99.99 -99.99    7  342   10  78.6 -99.9 1014.8 -9.9 -9.999 100.0 -99.99  5.40
2019/09/16 04:18 EDT  -99.99 -99.99    6  331    9  78.6 -99.9 1014.8 -9.9 -9.999 100.0 -99.99  5.40
2019/09/16 04:24 EDT  -99.99 -99.99    6  334   10  78.4 -99.9 1014.7 -9.9 -9.999 100.0 -99.99  5.40
2019/09/16 04:30 EDT  -99.99 -99.99    8  341   11  78.3 -99.9 1014.7 -9.9 -9.999 100.0 -99.99  5.40
2019/09/16 04:36 EDT  -99.99 -99.99    7  336    9  78.1 -99.9 1014.7 -9.9 -9.999 100.0 -99.99  5.40
2019/09/16 04:42 EDT  -99.99 -99.99    6  337   10  78.3 -99.9 1014.8 -9.9 -9.999 100.0 -99.99  5.40
2019/09/16 04:48 EDT  -99.99 -99.99    7  341   10  78.1 -99.9 1014.8 -9.9 -9.999 100.0 -99.99  5.40
2019/09/16 04:54 EDT  -99.99 -99.99    8  335   10  78.1 -99.9 1014.9 -9.9 -9.999 100.0 -99.99  5.40
2019/09/16 05:00 EDT  -99.99 -99.99    7  333   10  77.9 -99.9 1014.9 -9.9 -9.999 100.0 -99.99  5.40
2019/09/16 05:06 EDT  -99.99 -99.99    7  336   10  77.9 -99.9 1014.8 -9.9 -9.999 100.0 -99.99  5.40
2019/09/16 05:12 EDT  -99.99 -99.99    7  337    9  77.9 -99.9 1014.9 -9.9 -9.999 100.0 -99.99  5.40
2019/09/16 05:18 EDT  -99.99 -99.99    7  334   10  77.7 -99.9 1015.0 -9.9 -9.999 100.0 -99.99  5.40
2019/09/16 05:24 EDT  -99.99 -99.99    8  339    9  77.7 -99.9 1015.1 -9.9 -9.999 100.0 -99.99  5.40
2019/09/16 05:30 EDT  -99.99 -99.99    7  334   10  77.7 -99.9 1015.2 -9.9 -9.999 100.0 -99.99  5.40
2019/09/16 05:36 EDT  -99.99 -99.99    5  342    7  77.7 -99.9 1015.3 -9.9 -9.999 100.0 -99.99  5.40
2019/09/16 05:42 EDT  -99.99 -99.99    7  337   10  77.5 -99.9 1015.2 -9.9 -9.999 100.0 -99.99  5.40
2019/09/16 05:48 EDT  -99.99 -99.99    6  339    9  77.5 -99.9 1015.2 -9.9 -9.999 100.0 -99.99  5.40
2019/09/16 05:54 EDT  -99.99 -99.99    6  334   11  77.5 -99.9 1015.3 -9.9 -9.999 100.0 -99.99  5.40
2019/09/16 06:00 EDT  -99.99 -99.99    5  332    9  77.5 -99.9 1015.4 -9.9 -9.999 100.0 -99.99  5.40
2019/09/16 06:06 EDT  -99.99 -99.99    6  333    9  77.4 -99.9 1015.4 -9.9 -9.999 100.0 -99.99  5.40
2019/09/16 06:12 EDT  -99.99 -99.99    7  339    9  77.4 -99.9 1015.5 -9.9 -9.999 100.0 -99.99  5.40
2019/09/16 06:18 EDT  -99.99 -99.99    7  342   11  77.2 -99.9 1015.5 -9.9 -9.999 100.0 -99.99  5.40
2019/09/16 06:24 EDT  -99.99 -99.99    5  343   10  77.2 -99.9 1015.5 -9.9 -9.999 100.0 -99.99  5.40
2019/09/16 06:30 EDT  -99.99 -99.99    6  341    8  77.2 -99.9 1015.5 -9.9 -9.999 100.0 -99.99  5.40
2019/09/16 06:36 EDT  -99.99 -99.99    6  348    9  77.2 -99.9 1015.5 -9.9 -9.999 100.0 -99.99  5.40
2019/09/16 06:42 EDT  -99.99 -99.99    8  346   11  77.0 -99.9 1015.6 -9.9 -9.999 100.0 -99.99  5.40
2019/09/16 06:48 EDT  -99.99 -99.99    7  346   10  77.0 -99.9 1015.6 -9.9 -9.999 100.0 -99.99  5.40
2019/09/16 06:54 EDT  -99.99 -99.99    9  343   12  77.0 -99.9 1015.7 -9.9 -9.999 100.0 -99.99  5.40
2019/09/16 07:00 EDT  -99.99 -99.99    9  342   12  76.8 -99.9 1015.7 -9.9 -9.999 100.0 -99.99  5.40
2019/09/16 07:06 EDT  -99.99 -99.99    7  339   12  76.8 -99.9 1015.7 -9.9 -9.999 100.0 -99.99  5.40
2019/09/16 07:12 EDT  -99.99 -99.99    9  346   12  76.6 -99.9 1015.8 -9.9 -9.999 100.0 -99.99  5.40
2019/09/16 07:18 EDT  -99.99 -99.99    7  340   10  76.6 -99.9 1015.9 -9.9 -9.999 100.0 -99.99  5.40
2019/09/16 07:24 EDT  -99.99 -99.99    7  335   11  76.6 -99.9 1016.0 -9.9 -9.999 100.0 -99.99  5.40
2019/09/16 07:30 EDT  -99.99 -99.99    8  338   12  76.6 -99.9 1016.0 -9.9 -9.999 100.0 -99.99  5.40
2019/09/16 07:36 EDT  -99.99 -99.99    7  343   12  76.6 -99.9 1016.1 -9.9 -9.999 100.0 -99.99  5.40
2019/09/16 07:42 EDT  -99.99 -99.99    9  342   11  76.6 -99.9 1016.1 -9.9 -9.999 100.0 -99.99  5.40
2019/09/16 07:48 EDT  -99.99 -99.99    9  343   12  76.5 -99.9 1016.1 -9.9 -9.999 100.0 -99.99  5.40
2019/09/16 07:54 EDT  -99.99 -99.99    7  351   11  76.6 -99.9 1016.0 -9.9 -9.999 100.0 -99.99  5.40
2019/09/16 08:00 EDT  -99.99 -99.99   10  343   13  76.8 -99.9 1016.1 -9.9 -9.999 100.0 -99.99  5.40
2019/09/16 08:06 EDT  -99.99 -99.99    8  336   12  76.6 -99.9 1016.3 -9.9 -9.999 100.0 -99.99  5.40
2019/09/16 08:12 EDT  -99.99 -99.99    7  332   11  76.8 -99.9 1016.4 -9.9 -9.999 100.0 -99.99  5.40
2019/09/16 08:18 EDT  -99.99 -99.99    8  333   10  76.6 -99.9 1016.5 -9.9 -9.999 100.0 -99.99  5.40
2019/09/16 08:24 EDT  -99.99 -99.99    8  337   12  77.0 -99.9 1016.6 -9.9 -9.999 100.0 -99.99  5.40
2019/09/16 08:30 EDT  -99.99 -99.99    7  342   11  77.2 -99.9 1016.6 -9.9 -9.999 100.0 -99.99  5.40
2019/09/16 08:36 EDT  -99.99 -99.99    8  340   11  77.4 -99.9 1016.6 -9.9 -9.999 100.0 -99.99  5.40
2019/09/16 08:42 EDT  -99.99 -99.99    7  338   10  77.5 -99.9 1016.7 -9.9 -9.999 100.0 -99.99  5.40
2019/09/16 08:48 EDT  -99.99 -99.99    8  347   10  77.7 -99.9 1016.8 -9.9 -9.999 100.0 -99.99  5.40
2019/09/16 08:54 EDT  -99.99 -99.99    8  340   11  78.3 -99.9 1016.8 -9.9 -9.999 100.0 -99.99  5.40
2019/09/16 09:00 EDT  -99.99 -99.99    7  344   11  78.1 -99.9 1016.8 -9.9 -9.999 100.0 -99.99  5.40
2019/09/16 09:06 EDT  -99.99 -99.99    7  355   12  78.6 -99.9 1016.8 -9.9 -9.999 100.0 -99.99  5.40
2019/09/16 09:12 EDT  -99.99 -99.99    6  352   11  79.0 -99.9 1016.8 -9.9 -9.999 100.0 -99.99  5.40
2019/09/16 09:18 EDT  -99.99 -99.99   10  340   12  79.5 -99.9 1016.9 -9.9 -9.999 100.0 -99.99  5.40
2019/09/16 09:24 EDT  -99.99 -99.99    8  346   12  79.3 -99.9 1016.8 -9.9 -9.999 100.0 -99.99  5.40
2019/09/16 09:30 EDT  -99.99 -99.99    8  340   12  79.7 -99.9 1016.9 -9.9 -9.999 100.0 -99.99  5.40
2019/09/16 09:36 EDT  -99.99 -99.99    8  344   12  79.9 -99.9 1017.0 -9.9 -9.999 100.0 -99.99  5.40
2019/09/16 09:42 EDT  -99.99 -99.99   10    4   13  80.4 -99.9 1016.9 -9.9 -9.999 100.0 -99.99  5.40
2019/09/16 09:48 EDT  -99.99 -99.99    8  354   13  80.4 -99.9 1017.0 -9.9 -9.999 100.0 -99.99  5.40
2019/09/16 09:54 EDT  -99.99 -99.99   10  345   13  81.1 -99.9 1017.1 -9.9 -9.999 100.0 -99.99  5.40
2019/09/16 10:00 EDT  -99.99 -99.99    9  353   14  80.8 -99.9 1017.1 -9.9 -9.999  99.6 -99.99  5.40
2019/09/16 10:06 EDT  -99.99 -99.99    8  356   11  81.0 -99.9 1017.2 -9.9 -9.999  99.9 -99.99  5.40
2019/09/16 10:12 EDT  -99.99 -99.99    9  344   12  81.1 -99.9 1017.1 -9.9 -9.999  99.8 -99.99  5.40
2019/09/16 10:18 EDT  -99.99 -99.99    9  354   13  81.0 -99.9 1017.1 -9.9 -9.999  99.4 -99.99  5.40
2019/09/16 10:24 EDT  -99.99 -99.99    9  350   13  81.3 -99.9 1017.2 -9.9 -9.999  98.2 -99.99  5.40
2019/09/16 10:30 EDT  -99.99 -99.99    6  346   11  81.7 -99.9 1017.2 -9.9 -9.999  96.5 -99.99  5.40
2019/09/16 10:36 EDT  -99.99 -99.99    8    9   11  82.0 -99.9 1017.3 -9.9 -9.999  95.7 -99.99  5.40
2019/09/16 10:42 EDT  -99.99 -99.99    7  353   10  81.9 -99.9 1017.2 -9.9 -9.999  96.2 -99.99  5.40
2019/09/16 10:48 EDT  -99.99 -99.99    7  352   13  82.2 -99.9 1017.1 -9.9 -9.999  94.5 -99.99  5.40
2019/09/16 10:54 EDT  -99.99 -99.99    9   16   12  82.2 -99.9 1017.1 -9.9 -9.999  93.7 -99.99  5.40
2019/09/16 11:00 EDT  -99.99 -99.99    9   16   13  82.4 -99.9 1017.1 -9.9 -9.999  92.8 -99.99  5.40
2019/09/16 11:06 EDT  -99.99 -99.99    8  347   14  82.6 -99.9 1017.1 -9.9 -9.999  92.6 -99.99  5.40
2019/09/16 11:12 EDT  -99.99 -99.99    8   11   13  83.5 -99.9 1017.1 -9.9 -9.999  90.7 -99.99  5.40
2019/09/16 11:18 EDT  -99.99 -99.99   13   11   15  82.9 -99.9 1017.1 -9.9 -9.999  90.2 -99.99  5.40
2019/09/16 11:24 EDT  -99.99 -99.99    8    4   14  82.6 -99.9 1017.1 -9.9 -9.999  90.3 -99.99  5.40
2019/09/16 11:30 EDT  -99.99 -99.99   12    6   15  83.5 -99.9 1017.2 -9.9 -9.999  89.2 -99.99  5.40
2019/09/16 11:36 EDT  -99.99 -99.99   11  347   16  82.6 -99.9 1017.1 -9.9 -9.999  90.0 -99.99  5.40
2019/09/16 11:42 EDT  -99.99 -99.99   10  360   14  83.5 -99.9 1017.1 -9.9 -9.999  87.7 -99.99  5.40
2019/09/16 11:48 EDT  -99.99 -99.99   11   10   16  83.8 -99.9 1017.1 -9.9 -9.999  84.6 -99.99  5.40
2019/09/16 11:54 EDT  -99.99 -99.99    9  358   15  83.7 -99.9 1017.1 -9.9 -9.999  83.1 -99.99  5.40
2019/09/16 12:00 EDT  -99.99 -99.99   11    6   15  84.6 -99.9 1017.2 -9.9 -9.999  81.7 -99.99  5.40
2019/09/16 12:06 EDT  -99.99 -99.99   11    6   14  84.2 -99.9 1017.1 -9.9 -9.999  80.8 -99.99  5.40
2019/09/16 12:12 EDT  -99.99 -99.99    9    7   12  84.4 -99.9 1017.1 -9.9 -9.999  78.5 -99.99  5.40
2019/09/16 12:18 EDT  -99.99 -99.99   11   12   15  84.6 -99.9 1017.1 -9.9 -9.999  78.6 -99.99  5.40
2019/09/16 12:24 EDT  -99.99 -99.99   10   13   15  84.4 -99.9 1017.0 -9.9 -9.999  79.6 -99.99  5.40
2019/09/16 12:30 EDT  -99.99 -99.99   10    5   17  84.6 -99.9 1017.0 -9.9 -9.999  78.7 -99.99  5.40
2019/09/16 12:36 EDT  -99.99 -99.99   11   12   15  84.4 -99.9 1016.9 -9.9 -9.999  78.9 -99.99  5.40
2019/09/16 12:42 EDT  -99.99 -99.99   11    5   14  84.4 -99.9 1016.9 -9.9 -9.999  78.8 -99.99  5.40
2019/09/16 12:48 EDT  -99.99 -99.99   13   15   16  84.2 -99.9 1016.9 -9.9 -9.999  79.1 -99.99  5.40
2019/09/16 12:54 EDT  -99.99 -99.99   11    7   14  84.0 -99.9 1016.9 -9.9 -9.999  78.9 -99.99  5.40
2019/09/16 13:00 EDT  -99.99 -99.99    8    8   15  84.0 -99.9 1016.9 -9.9 -9.999  78.2 -99.99  5.40
2019/09/16 13:06 EDT  -99.99 -99.99   12    7   15  84.6 -99.9 1016.8 -9.9 -9.999  76.8 -99.99  5.40
2019/09/16 13:12 EDT  -99.99 -99.99   10    3   15  84.6 -99.9 1016.8 -9.9 -9.999  77.0 -99.99  5.40
2019/09/16 13:18 EDT  -99.99 -99.99   10   31   15  84.7 -99.9 1016.7 -9.9 -9.999  75.7 -99.99  5.40
2019/09/16 13:24 EDT  -99.99 -99.99    8   27   12  84.7 -99.9 1016.7 -9.9 -9.999  77.7 -99.99  5.40
2019/09/16 13:30 EDT  -99.99 -99.99    7   15   11  85.3 -99.9 1016.7 -9.9 -9.999  77.1 -99.99  5.40
2019/09/16 13:36 EDT  -99.99 -99.99    9   22   13  85.3 -99.9 1016.7 -9.9 -9.999  74.6 -99.99  5.40
2019/09/16 13:42 EDT  -99.99 -99.99    9   23   14  84.9 -99.9 1016.8 -9.9 -9.999  74.4 -99.99  5.40
2019/09/16 13:48 EDT  -99.99 -99.99    8   19   11  85.3 -99.9 1016.7 -9.9 -9.999  72.0 -99.99  5.40
2019/09/16 13:54 EDT  -99.99 -99.99    9    6   14  86.0 -99.9 1016.6 -9.9 -9.999  70.9 -99.99  5.40
2019/09/16 14:00 EDT  -99.99 -99.99   13    9   19  86.4 -99.9 1016.4 -9.9 -9.999  69.2 -99.99  5.40
2019/09/16 14:06 EDT  -99.99 -99.99   12    9   18  85.8 -99.9 1016.4 -9.9 -9.999  67.1 -99.99  5.40
2019/09/16 14:12 EDT  -99.99 -99.99    9   21   14  85.8 -99.9 1016.3 -9.9 -9.999  67.2 -99.99  5.40
2019/09/16 14:18 EDT  -99.99 -99.99   11   34   15  86.0 -99.9 1016.3 -9.9 -9.999  68.9 -99.99  5.40
2019/09/16 14:24 EDT  -99.99 -99.99    9   13   15  85.8 -99.9 1016.2 -9.9 -9.999  69.5 -99.99  5.40
2019/09/16 14:30 EDT  -99.99 -99.99   11    8   16  85.8 -99.9 1016.2 -9.9 -9.999  68.1 -99.99  5.40
2019/09/16 14:36 EDT  -99.99 -99.99    8  358   14  86.7 -99.9 1016.1 -9.9 -9.999  62.5 -99.99  5.40
2019/09/16 14:42 EDT  -99.99 -99.99    9  351   15  87.4 -99.9 1016.1 -9.9 -9.999  62.7 -99.99  5.40
2019/09/16 14:48 EDT  -99.99 -99.99   11    5   15  87.3 -99.9 1016.0 -9.9 -9.999  61.4 -99.99  5.40
2019/09/16 14:54 EDT  -99.99 -99.99    8   18   14  86.9 -99.9 1016.0 -9.9 -9.999  60.3 -99.99  5.40
2019/09/16 15:00 EDT  -99.99 -99.99    6   27   11  87.1 -99.9 1015.9 -9.9 -9.999  58.5 -99.99  5.40
2019/09/16 15:06 EDT  -99.99 -99.99    9   23   14  87.3 -99.9 1015.9 -9.9 -9.999  60.0 -99.99  5.40
2019/09/16 15:12 EDT  -99.99 -99.99   10    6   14  86.9 -99.9 1015.9 -9.9 -9.999  58.1 -99.99  5.40
2019/09/16 15:18 EDT  -99.99 -99.99    8   10   16  87.4 -99.9 1015.8 -9.9 -9.999  55.0 -99.99  5.40
2019/09/16 15:24 EDT  -99.99 -99.99    9   39   13  87.8 -99.9 1015.8 -9.9 -9.999  56.2 -99.99  5.40
2019/09/16 15:30 EDT  -99.99 -99.99    9   37   12  87.3 -99.9 1015.7 -9.9 -9.999  59.4 -99.99  5.40
2019/09/16 15:36 EDT  -99.99 -99.99    8   28   11  86.9 -99.9 1015.7 -9.9 -9.999  61.0 -99.99  5.40
2019/09/16 15:42 EDT  -99.99 -99.99   11   47   14  87.1 -99.9 1015.7 -9.9 -9.999  61.1 -99.99  5.40
2019/09/16 15:48 EDT  -99.99 -99.99    9   39   12  87.3 -99.9 1015.7 -9.9 -9.999  59.0 -99.99  5.40
2019/09/16 15:54 EDT  -99.99 -99.99    8   36   12  86.9 -99.9 1015.6 -9.9 -9.999  59.3 -99.99  5.40
2019/09/16 16:00 EDT  -99.99 -99.99    9   44   13  87.3 -99.9 1015.6 -9.9 -9.999  59.2 -99.99  5.40
2019/09/16 16:06 EDT  -99.99 -99.99    9   41   12  87.3 -99.9 1015.5 -9.9 -9.999  59.8 -99.99  5.40
2019/09/16 16:12 EDT  -99.99 -99.99   11   45   13  86.7 -99.9 1015.4 -9.9 -9.999  61.1 -99.99  5.40
2019/09/16 16:18 EDT  -99.99 -99.99    9   42   13  86.5 -99.9 1015.3 -9.9 -9.999  61.4 -99.99  5.40
2019/09/16 16:24 EDT  -99.99 -99.99   10   50   13  86.5 -99.9 1015.2 -9.9 -9.999  62.2 -99.99  5.40
2019/09/16 16:30 EDT  -99.99 -99.99   11   48   13  86.4 -99.9 1015.1 -9.9 -9.999  62.4 -99.99  5.40
2019/09/16 16:36 EDT  -99.99 -99.99   10   44   13  86.0 -99.9 1015.1 -9.9 -9.999  63.5 -99.99  5.40
2019/09/16 16:42 EDT  -99.99 -99.99   11   40   13  86.2 -99.9 1015.1 -9.9 -9.999  63.2 -99.99  5.40
2019/09/16 16:48 EDT  -99.99 -99.99   10   48   13  86.2 -99.9 1015.1 -9.9 -9.999  63.0 -99.99  5.40
2019/09/16 16:54 EDT  -99.99 -99.99   10   40   12  86.2 -99.9 1015.1 -9.9 -9.999  63.4 -99.99  5.40
2019/09/16 17:00 EDT  -99.99 -99.99   10   40   12  86.2 -99.9 1015.2 -9.9 -9.999  63.5 -99.99  5.40
2019/09/16 17:06 EDT  -99.99 -99.99    9   36   13  86.0 -99.9 1015.1 -9.9 -9.999  62.9 -99.99  5.40
2019/09/16 17:12 EDT  -99.99 -99.99   10   44   12  86.0 -99.9 1015.0 -9.9 -9.999  62.3 -99.99  5.40
2019/09/16 17:18 EDT  -99.99 -99.99    8   47   12  86.0 -99.9 1015.1 -9.9 -9.999  62.7 -99.99  5.40
2019/09/16 17:24 EDT  -99.99 -99.99    9   51   12  86.0 -99.9 1015.1 -9.9 -9.999  63.7 -99.99  5.40
2019/09/16 17:30 EDT  -99.99 -99.99    9   46   11  85.8 -99.9 1015.0 -9.9 -9.999  64.6 -99.99  5.40
2019/09/16 17:36 EDT  -99.99 -99.99    8   49   11  85.8 -99.9 1015.0 -9.9 -9.999  64.9 -99.99  5.40
2019/09/16 17:42 EDT  -99.99 -99.99    9   53   11  85.8 -99.9 1015.1 -9.9 -9.999  66.0 -99.99  5.40
2019/09/16 17:48 EDT  -99.99 -99.99    9   48   11  85.6 -99.9 1015.1 -9.9 -9.999  64.8 -99.99  5.40
2019/09/16 17:54 EDT  -99.99 -99.99    8   53   13  85.6 -99.9 1015.1 -9.9 -9.999  64.0 -99.99  5.40
2019/09/16 18:00 EDT  -99.99 -99.99    7   46   11  85.5 -99.9 1015.1 -9.9 -9.999  66.1 -99.99  5.40
2019/09/16 18:06 EDT  -99.99 -99.99    9   40   11  85.5 -99.9 1015.0 -9.9 -9.999  67.8 -99.99  5.40
2019/09/16 18:12 EDT  -99.99 -99.99    7   49   11  85.1 -99.9 1015.0 -9.9 -9.999  66.6 -99.99  5.40
2019/09/16 18:18 EDT  -99.99 -99.99    8   53   10  85.3 -99.9 1015.0 -9.9 -9.999  67.2 -99.99  5.40
2019/09/16 18:24 EDT  -99.99 -99.99    8   49   11  85.1 -99.9 1015.0 -9.9 -9.999  66.6 -99.99  5.40
2019/09/16 18:30 EDT  -99.99 -99.99    9   43   11  85.1 -99.9 1015.0 -9.9 -9.999  66.0 -99.99  5.40
2019/09/16 18:36 EDT  -99.99 -99.99    8   40   12  85.1 -99.9 1015.0 -9.9 -9.999  62.7 -99.99  5.40
2019/09/16 18:42 EDT  -99.99 -99.99    6   57    9  85.1 -99.9 1015.0 -9.9 -9.999  63.9 -99.99  5.40
2019/09/16 18:48 EDT  -99.99 -99.99    5   68    8  85.1 -99.9 1014.9 -9.9 -9.999  63.5 -99.99  5.40
2019/09/16 18:54 EDT  -99.99 -99.99    5   71    8  84.9 -99.9 1015.0 -9.9 -9.999  64.0 -99.99  5.40
2019/09/16 19:00 EDT  -99.99 -99.99    4   73    6  84.6 -99.9 1015.1 -9.9 -9.999  64.1 -99.99  5.40
2019/09/16 19:06 EDT  -99.99 -99.99    4   75    5  84.6 -99.9 1015.1 -9.9 -9.999  66.0 -99.99  5.40
2019/09/16 19:12 EDT  -99.99 -99.99    4   71    5  83.8 -99.9 1015.1 -9.9 -9.999  67.2 -99.99  5.40
2019/09/16 19:18 EDT  -99.99 -99.99    4   81    5  83.8 -99.9 1015.1 -9.9 -9.999  66.9 -99.99  5.40
2019/09/16 19:24 EDT  -99.99 -99.99    4   73    5  83.8 -99.9 1015.0 -9.9 -9.999  65.8 -99.99  5.40
2019/09/16 19:30 EDT  -99.99 -99.99    4   72    5  83.5 -99.9 1015.0 -9.9 -9.999  66.9 -99.99  5.40
2019/09/16 19:36 EDT  -99.99 -99.99    4   78    4  83.3 -99.9 1015.0 -9.9 -9.999  67.5 -99.99  5.40
2019/09/16 19:42 EDT  -99.99 -99.99    4   78    4  82.9 -99.9 1014.9 -9.9 -9.999  68.7 -99.99  5.40
2019/09/16 19:48 EDT  -99.99 -99.99    4   77    4  82.9 -99.9 1014.9 -9.9 -9.999  68.2 -99.99  5.40
2019/09/16 19:54 EDT  -99.99 -99.99    3   79    4  82.9 -99.9 1015.0 -9.9 -9.999  68.1 -99.99  5.40
2019/09/16 20:00 EDT  -99.99 -99.99    1   92    2  83.1 -99.9 1015.0 -9.9 -9.999  69.2 -99.99  5.40
2019/09/16 20:06 EDT  -99.99 -99.99    1  145    1  82.9 -99.9 1014.9 -9.9 -9.999  70.7 -99.99  5.40
2019/09/16 20:12 EDT  -99.99 -99.99    1  183    2  82.9 -99.9 1014.9 -9.9 -9.999  72.2 -99.99  5.40
2019/09/16 20:18 EDT  -99.99 -99.99    3  203    3  83.3 -99.9 1015.0 -9.9 -9.999  74.7 -99.99  5.40
2019/09/16 20:24 EDT  -99.99 -99.99    1  181    2  82.2 -99.9 1015.0 -9.9 -9.999  75.7 -99.99  5.40
2019/09/16 20:30 EDT  -99.99 -99.99    1  114    2  82.4 -99.9 1015.0 -9.9 -9.999  76.7 -99.99  5.40
2019/09/16 20:36 EDT  -99.99 -99.99    0  128    2  82.0 -99.9 1015.0 -9.9 -9.999  76.2 -99.99  5.40
2019/09/16 20:42 EDT  -99.99 -99.99    2  217    2  82.0 -99.9 1015.0 -9.9 -9.999  76.5 -99.99  5.40
2019/09/16 20:48 EDT  -99.99 -99.99    1  206    2  82.8 -99.9 1014.9 -9.9 -9.999  77.4 -99.99  5.40
2019/09/16 20:54 EDT  -99.99 -99.99    1  200    1  82.0 -99.9 1014.9 -9.9 -9.999  79.9 -99.99  5.40
2019/09/16 21:00 EDT  -99.99 -99.99    2  203    2  81.9 -99.9 1015.0 -9.9 -9.999  82.5 -99.99  5.40
2019/09/16 21:06 EDT  -99.99 -99.99    2  207    2  81.7 -99.9 1015.0 -9.9 -9.999  81.4 -99.99  5.40
2019/09/16 21:12 EDT  -99.99 -99.99    3  186    3  81.9 -99.9 1015.0 -9.9 -9.999  81.9 -99.99  5.40
2019/09/16 21:18 EDT  -99.99 -99.99    2  200    3  81.9 -99.9 1015.0 -9.9 -9.999  83.2 -99.99  5.40
2019/09/16 21:24 EDT  -99.99 -99.99    2  183    3  81.7 -99.9 1015.0 -9.9 -9.999  86.9 -99.99  5.40
2019/09/16 21:30 EDT  -99.99 -99.99    2  183    3  81.5 -99.9 1015.0 -9.9 -9.999  89.3 -99.99  5.40
2019/09/16 21:36 EDT  -99.99 -99.99    2  201    3  81.1 -99.9 1015.1 -9.9 -9.999  90.8 -99.99  5.40
2019/09/16 21:42 EDT  -99.99 -99.99    1  197    2  81.0 -99.9 1015.2 -9.9 -9.999  91.5 -99.99  5.40
2019/09/16 21:48 EDT  -99.99 -99.99    0  197    1  81.0 -99.9 1015.2 -9.9 -9.999  92.9 -99.99  5.40
2019/09/16 21:54 EDT  -99.99 -99.99    1  197    1  80.8 -99.9 1015.3 -9.9 -9.999  93.8 -99.99  5.40
2019/09/16 22:00 EDT  -99.99 -99.99    1  207    2  80.6 -99.9 1015.3 -9.9 -9.999  94.9 -99.99  5.40
2019/09/16 22:06 EDT  -99.99 -99.99    1  199    1  80.4 -99.9 1015.4 -9.9 -9.999  95.5 -99.99  5.40
2019/09/16 22:12 EDT  -99.99 -99.99    1  206    1  80.4 -99.9 1015.4 -9.9 -9.999  94.8 -99.99  5.40
2019/09/16 22:18 EDT  -99.99 -99.99    0  213    2  80.8 -99.9 1015.4 -9.9 -9.999  94.8 -99.99  5.40
2019/09/16 22:24 EDT  -99.99 -99.99    0  213    0  80.4 -99.9 1015.4 -9.9 -9.999  93.2 -99.99  5.40
2019/09/16 22:30 EDT  -99.99 -99.99    0  213    0  80.2 -99.9 1015.3 -9.9 -9.999  92.8 -99.99  5.40
2019/09/16 22:36 EDT  -99.99 -99.99    1  183    1  81.1 -99.9 1015.4 -9.9 -9.999  94.8 -99.99  5.40
2019/09/16 22:42 EDT  -99.99 -99.99    1  159    2  80.6 -99.9 1015.4 -9.9 -9.999  95.1 -99.99  5.40
2019/09/16 22:48 EDT  -99.99 -99.99    2  195    2  80.2 -99.9 1015.4 -9.9 -9.999  93.1 -99.99  5.40
2019/09/16 22:54 EDT  -99.99 -99.99    1  162    2  80.2 -99.9 1015.4 -9.9 -9.999  91.3 -99.99  5.40
2019/09/16 23:00 EDT  -99.99 -99.99    1  162    1  80.2 -99.9 1015.4 -9.9 -9.999  91.2 -99.99  5.40
2019/09/16 23:06 EDT  -99.99 -99.99    0  162    1  80.1 -99.9 1015.4 -9.9 -9.999  91.5 -99.99  5.40
2019/09/16 23:12 EDT  -99.99 -99.99    0  162    1  80.2 -99.9 1015.4 -9.9 -9.999  91.5 -99.99  5.40
2019/09/16 23:18 EDT  -99.99 -99.99    0  162    1  80.2 -99.9 1015.4 -9.9 -9.999  92.1 -99.99  5.40
2019/09/16 23:24 EDT  -99.99 -99.99    0  162    0  80.1 -99.9 1015.3 -9.9 -9.999  92.5 -99.99  5.40
2019/09/16 23:30 EDT  -99.99 -99.99    0  163    0  79.9 -99.9 1015.3 -9.9 -9.999  93.1 -99.99  5.40
2019/09/16 23:36 EDT  -99.99 -99.99    2  199    2  80.4 -99.9 1015.3 -9.9 -9.999  94.6 -99.99  5.40
2019/09/16 23:42 EDT  -99.99 -99.99    2  221    3  79.7 -99.9 1015.3 -9.9 -9.999  95.7 -99.99  5.40
2019/09/16 23:48 EDT  -99.99 -99.99    2  210    2  79.9 -99.9 1015.2 -9.9 -9.999  96.5 -99.99  5.40
2019/09/16 23:54 EDT  -99.99 -99.99    2  218    2  79.7 -99.9 1015.2 -9.9 -9.999  96.3 -99.99  5.40
2019/09/17 00:00 EDT  -99.99 -99.99    2  218    3  79.3 -99.9 1015.1 -9.9 -9.999  97.7 -99.99  5.40
2019/09/17 00:06 EDT  -99.99 -99.99    2  207    2  79.3 -99.9 1015.1 -9.9 -9.999  98.7 -99.99  5.40
2019/09/17 00:12 EDT  -99.99 -99.99    2  218    3  79.3 -99.9 1015.0 -9.9 -9.999  99.5 -99.99  5.40
2019/09/17 00:18 EDT  -99.99 -99.99    2  217    3  79.5 -99.9 1015.0 -9.9 -9.999 100.0 -99.99  5.40
2019/09/17 00:24 EDT  -99.99 -99.99    2  211    3  79.5 -99.9 1014.9 -9.9 -9.999 100.0 -99.99  5.40
2019/09/17 00:30 EDT  -99.99 -99.99    3  201    4  79.5 -99.9 1014.8 -9.9 -9.999 100.0 -99.99  5.40
2019/09/17 00:36 EDT  -99.99 -99.99    4  202    5  79.5 -99.9 1014.8 -9.9 -9.999 100.0 -99.99  5.40
2019/09/17 00:42 EDT  -99.99 -99.99    4  199    4  79.7 -99.9 1014.8 -9.9 -9.999 100.0 -99.99  5.40
2019/09/17 00:48 EDT  -99.99 -99.99    2  196    4  79.5 -99.9 1014.8 -9.9 -9.999 100.0 -99.99  5.40
2019/09/17 00:54 EDT  -99.99 -99.99    2  254    2  79.3 -99.9 1014.8 -9.9 -9.999 100.0 -99.99  5.40
2019/09/17 01:00 EDT  -99.99 -99.99    2  270    3  79.0 -99.9 1014.8 -9.9 -9.999 100.0 -99.99  5.40
2019/09/17 01:06 EDT  -99.99 -99.99    2  268    2  78.8 -99.9 1014.8 -9.9 -9.999 100.0 -99.99  5.40
2019/09/17 01:12 EDT  -99.99 -99.99    3  274    4  78.8 -99.9 1014.9 -9.9 -9.999 100.0 -99.99  5.40
2019/09/17 01:18 EDT  -99.99 -99.99    4  270    4  78.8 -99.9 1014.8 -9.9 -9.999  96.8 -99.99  5.40
2019/09/17 01:24 EDT  -99.99 -99.99    2  281    4  79.0 -99.9 1014.9 -9.9 -9.999  94.3 -99.99  5.40
2019/09/17 01:30 EDT  -99.99 -99.99    2  312    3  79.2 -99.9 1014.9 -9.9 -9.999  92.3 -99.99  5.40
2019/09/17 01:36 EDT  -99.99 -99.99    1  319    2  79.7 -99.9 1014.9 -9.9 -9.999  90.5 -99.99  5.40
2019/09/17 01:42 EDT  -99.99 -99.99    1  319    2  80.4 -99.9 1014.9 -9.9 -9.999  92.3 -99.99  5.40
2019/09/17 01:48 EDT  -99.99 -99.99    2  308    3  80.4 -99.9 1014.8 -9.9 -9.999  96.0 -99.99  5.40
2019/09/17 01:54 EDT  -99.99 -99.99    3  310    4  79.9 -99.9 1014.8 -9.9 -9.999  99.0 -99.99  5.40
2019/09/17 02:00 EDT  -99.99 -99.99    3  315    4  79.0 -99.9 1014.8 -9.9 -9.999 100.0 -99.99  5.40
2019/09/17 02:06 EDT  -99.99 -99.99    3  303    4  78.8 -99.9 1014.7 -9.9 -9.999  99.7 -99.99  5.40
2019/09/17 02:12 EDT  -99.99 -99.99    3  300    3  78.8 -99.9 1014.8 -9.9 -9.999  98.3 -99.99  5.40
2019/09/17 02:18 EDT  -99.99 -99.99    4  290    5  78.8 -99.9 1014.7 -9.9 -9.999  97.0 -99.99  5.40
2019/09/17 02:24 EDT  -99.99 -99.99    3  300    5  78.8 -99.9 1014.6 -9.9 -9.999  94.4 -99.99  5.40
2019/09/17 02:30 EDT  -99.99 -99.99    4  308    4  79.0 -99.9 1014.5 -9.9 -9.999  93.6 -99.99  5.40
2019/09/17 02:36 EDT  -99.99 -99.99    3  292    4  78.6 -99.9 1014.4 -9.9 -9.999  93.8 -99.99  5.40
2019/09/17 02:42 EDT  -99.99 -99.99    3  296    4  78.4 -99.9 1014.4 -9.9 -9.999  94.2 -99.99  5.40
2019/09/17 02:48 EDT  -99.99 -99.99    3  294    4  78.4 -99.9 1014.3 -9.9 -9.999  94.3 -99.99  5.40
2019/09/17 02:54 EDT  -99.99 -99.99    3  300    4  78.3 -99.9 1014.2 -9.9 -9.999  94.7 -99.99  5.40
2019/09/17 03:00 EDT  -99.99 -99.99    3  292    4  78.3 -99.9 1014.2 -9.9 -9.999  95.4 -99.99  5.40
2019/09/17 03:06 EDT  -99.99 -99.99    3  284    4  78.1 -99.9 1014.2 -9.9 -9.999  95.9 -99.99  5.40
2019/09/17 03:12 EDT  -99.99 -99.99    3  280    4  78.1 -99.9 1014.1 -9.9 -9.999  96.8 -99.99  5.40
2019/09/17 03:18 EDT  -99.99 -99.99    3  280    4  78.1 -99.9 1014.0 -9.9 -9.999  96.9 -99.99  5.40
2019/09/17 03:24 EDT  -99.99 -99.99    4  286    5  77.9 -99.9 1014.1 -9.9 -9.999  97.1 -99.99  5.40
2019/09/17 03:30 EDT  -99.99 -99.99    4  295    5  77.7 -99.9 1014.1 -9.9 -9.999  96.4 -99.99  5.40
2019/09/17 03:36 EDT  -99.99 -99.99    4  292    5  77.7 -99.9 1014.1 -9.9 -9.999  96.0 -99.99  5.40
2019/09/17 03:42 EDT  -99.99 -99.99    3  297    4  77.5 -99.9 1014.1 -9.9 -9.999  96.3 -99.99  5.40
2019/09/17 03:48 EDT  -99.99 -99.99    3  298    4  77.5 -99.9 1014.1 -9.9 -9.999  96.7 -99.99  5.40
2019/09/17 03:54 EDT  -99.99 -99.99    3  301    4  77.5 -99.9 1014.1 -9.9 -9.999  97.1 -99.99  5.40
2019/09/17 04:00 EDT  -99.99 -99.99    2  295    3  77.5 -99.9 1014.0 -9.9 -9.999  97.4 -99.99  5.40
2019/09/17 04:06 EDT  -99.99 -99.99    2  281    3  77.4 -99.9 1013.9 -9.9 -9.999  97.1 -99.99  5.40
2019/09/17 04:12 EDT  -99.99 -99.99    2  274    2  77.4 -99.9 1013.9 -9.9 -9.999  96.5 -99.99  5.40
2019/09/17 04:18 EDT  -99.99 -99.99    2  268    3  77.4 -99.9 1013.9 -9.9 -9.999  97.0 -99.99  5.40
2019/09/17 04:24 EDT  -99.99 -99.99    2  282    3  77.0 -99.9 1013.8 -9.9 -9.999  97.8 -99.99  5.40
2019/09/17 04:30 EDT  -99.99 -99.99    2  286    4  76.8 -99.9 1013.8 -9.9 -9.999  97.7 -99.99  5.40
2019/09/17 04:36 EDT  -99.99 -99.99    2  272    3  77.0 -99.9 1013.8 -9.9 -9.999  96.0 -99.99  5.40
2019/09/17 04:42 EDT  -99.99 -99.99    3  271    3  77.4 -99.9 1013.8 -9.9 -9.999  95.0 -99.99  5.40
2019/09/17 04:48 EDT  -99.99 -99.99    1  280    3  77.7 -99.9 1013.8 -9.9 -9.999  94.2 -99.99  5.40
2019/09/17 04:54 EDT  -99.99 -99.99    2  276    3  77.7 -99.9 1013.8 -9.9 -9.999  94.3 -99.99  5.40
2019/09/17 05:00 EDT  -99.99 -99.99    2  267    2  77.9 -99.9 1013.8 -9.9 -9.999  95.4 -99.99  5.40
2019/09/17 05:06 EDT  -99.99 -99.99    2  266    3  77.7 -99.9 1013.8 -9.9 -9.999  95.8 -99.99  5.40
2019/09/17 05:12 EDT  -99.99 -99.99    2  300    2  77.5 -99.9 1013.8 -9.9 -9.999  95.5 -99.99  5.40
2019/09/17 05:18 EDT  -99.99 -99.99    3  283    4  77.4 -99.9 1013.8 -9.9 -9.999  95.2 -99.99  5.40
2019/09/17 05:24 EDT  -99.99 -99.99    3  292    4  77.2 -99.9 1013.8 -9.9 -9.999  94.6 -99.99  5.40
2019/09/17 05:30 EDT  -99.99 -99.99    3  300    4  77.0 -99.9 1013.8 -9.9 -9.999  93.9 -99.99  5.40
2019/09/17 05:36 EDT  -99.99 -99.99    2  287    3  77.4 -99.9 1013.9 -9.9 -9.999  93.4 -99.99  5.40
2019/09/17 05:42 EDT  -99.99 -99.99    2  288    2  77.2 -99.9 1013.9 -9.9 -9.999  93.6 -99.99  5.40
2019/09/17 05:48 EDT  -99.99 -99.99    2  277    3  77.2 -99.9 1014.0 -9.9 -9.999  94.5 -99.99  5.40
2019/09/17 05:54 EDT  -99.99 -99.99    2  283    3  77.4 -99.9 1014.0 -9.9 -9.999  95.6 -99.99  5.40
2019/09/17 06:00 EDT  -99.99 -99.99    3  282    3  77.4 -99.9 1014.0 -9.9 -9.999  96.4 -99.99  5.40
2019/09/17 06:06 EDT  -99.99 -99.99    3  274    4  77.4 -99.9 1014.1 -9.9 -9.999  96.6 -99.99  5.40
2019/09/17 06:12 EDT  -99.99 -99.99    3  274    4  77.2 -99.9 1014.1 -9.9 -9.999  96.6 -99.99  5.40
2019/09/17 06:18 EDT  -99.99 -99.99    3  281    4  77.2 -99.9 1014.2 -9.9 -9.999  97.2 -99.99  5.40
2019/09/17 06:24 EDT  -99.99 -99.99    3  287    4  77.2 -99.9 1014.3 -9.9 -9.999  97.3 -99.99  5.40
2019/09/17 06:30 EDT  -99.99 -99.99    3  291    4  77.2 -99.9 1014.4 -9.9 -9.999  97.4 -99.99  5.40
2019/09/17 06:36 EDT  -99.99 -99.99    3  293    4  77.2 -99.9 1014.4 -9.9 -9.999  97.5 -99.99  5.40
2019/09/17 06:42 EDT  -99.99 -99.99    2  296    3  77.2 -99.9 1014.5 -9.9 -9.999  97.5 -99.99  5.40
2019/09/17 06:48 EDT  -99.99 -99.99    2  294    3  77.0 -99.9 1014.7 -9.9 -9.999  97.7 -99.99  5.40
2019/09/17 06:54 EDT  -99.99 -99.99    2  273    3  76.8 -99.9 1014.7 -9.9 -9.999  97.9 -99.99  5.40
2019/09/17 07:00 EDT  -99.99 -99.99    2  272    3  77.0 -99.9 1014.8 -9.9 -9.999  97.8 -99.99  5.40
2019/09/17 07:06 EDT  -99.99 -99.99    2  297    2  77.0 -99.9 1014.9 -9.9 -9.999  97.6 -99.99  5.40
2019/09/17 07:12 EDT  -99.99 -99.99    3  286    3  76.8 -99.9 1014.9 -9.9 -9.999  97.2 -99.99  5.40
2019/09/17 07:18 EDT  -99.99 -99.99    3  280    4  76.5 -99.9 1014.9 -9.9 -9.999  97.1 -99.99  5.40
2019/09/17 07:24 EDT  -99.99 -99.99    3  287    4  76.5 -99.9 1015.0 -9.9 -9.999  97.2 -99.99  5.40
2019/09/17 07:30 EDT  -99.99 -99.99    2  286    3  76.6 -99.9 1015.1 -9.9 -9.999  97.0 -99.99  5.40
2019/09/17 07:36 EDT  -99.99 -99.99    3  293    4  76.8 -99.9 1015.2 -9.9 -9.999  96.5 -99.99  5.40
2019/09/17 07:42 EDT  -99.99 -99.99    4  290    4  77.2 -99.9 1015.2 -9.9 -9.999  96.1 -99.99  5.40
2019/09/17 07:48 EDT  -99.99 -99.99    3  289    5  77.4 -99.9 1015.3 -9.9 -9.999  95.8 -99.99  5.40
2019/09/17 07:54 EDT  -99.99 -99.99    2  298    4  77.7 -99.9 1015.3 -9.9 -9.999  95.4 -99.99  5.40
2019/09/17 08:00 EDT  -99.99 -99.99    3  290    5  77.9 -99.9 1015.3 -9.9 -9.999  94.6 -99.99  5.40
2019/09/17 08:06 EDT  -99.99 -99.99    3  292    5  77.7 -99.9 1015.4 -9.9 -9.999  94.1 -99.99  5.40
2019/09/17 08:12 EDT  -99.99 -99.99    3  284    5  77.7 -99.9 1015.4 -9.9 -9.999  93.9 -99.99  5.40
2019/09/17 08:18 EDT  -99.99 -99.99    3  292    4  77.7 -99.9 1015.5 -9.9 -9.999  94.3 -99.99  5.40
2019/09/17 08:24 EDT  -99.99 -99.99    3  292    4  77.5 -99.9 1015.6 -9.9 -9.999  94.2 -99.99  5.40
2019/09/17 08:30 EDT  -99.99 -99.99    4  301    5  77.7 -99.9 1015.6 -9.9 -9.999  94.1 -99.99  5.40
2019/09/17 08:36 EDT  -99.99 -99.99    3  295    5  77.7 -99.9 1015.6 -9.9 -9.999  93.8 -99.99  5.40
2019/09/17 08:42 EDT  -99.99 -99.99    4  287    5  77.7 -99.9 1015.7 -9.9 -9.999  93.7 -99.99  5.40
2019/09/17 08:48 EDT  -99.99 -99.99    4  290    6  77.7 -99.9 1015.8 -9.9 -9.999  93.0 -99.99  5.40
2019/09/17 08:54 EDT  -99.99 -99.99    3  292    6  77.7 -99.9 1015.8 -9.9 -9.999  92.9 -99.99  5.40
2019/09/17 09:00 EDT  -99.99 -99.99    5  297    7  78.3 -99.9 1015.9 -9.9 -9.999  93.0 -99.99  5.40
2019/09/17 09:06 EDT  -99.99 -99.99    4  295    7  78.8 -99.9 1016.0 -9.9 -9.999  90.2 -99.99  5.40
2019/09/17 09:12 EDT  -99.99 -99.99    5  307    6  79.3 -99.9 1016.0 -9.9 -9.999  88.8 -99.99  5.40
2019/09/17 09:18 EDT  -99.99 -99.99    4  292    6  79.7 -99.9 1016.1 -9.9 -9.999  87.0 -99.99  5.40
2019/09/17 09:24 EDT  -99.99 -99.99    5  284    5  80.2 -99.9 1016.1 -9.9 -9.999  85.1 -99.99  5.40
2019/09/17 09:30 EDT  -99.99 -99.99    4  292    6  80.2 -99.9 1016.1 -9.9 -9.999  85.0 -99.99  5.40
2019/09/17 09:36 EDT  -99.99 -99.99    4  301    6  81.1 -99.9 1016.1 -9.9 -9.999  83.3 -99.99  5.40
2019/09/17 09:42 EDT  -99.99 -99.99    4  302    5  82.0 -99.9 1016.2 -9.9 -9.999  81.5 -99.99  5.40
2019/09/17 09:48 EDT  -99.99 -99.99    4  314    6  82.4 -99.9 1016.2 -9.9 -9.999  77.8 -99.99  5.40
2019/09/17 09:54 EDT  -99.99 -99.99    4  317    5  83.1 -99.9 1016.2 -9.9 -9.999  76.3 -99.99  5.40
2019/09/17 10:00 EDT  -99.99 -99.99    5  323    6  83.1 -99.9 1016.3 -9.9 -9.999  76.4 -99.99  5.40
2019/09/17 10:06 EDT  -99.99 -99.99    5  324    7  83.7 -99.9 1016.2 -9.9 -9.999  75.2 -99.99  5.40
2019/09/17 10:12 EDT  -99.99 -99.99    5  329    7  84.2 -99.9 1016.2 -9.9 -9.999  73.2 -99.99  5.40
2019/09/17 10:18 EDT  -99.99 -99.99    6  331    8  84.2 -99.9 1016.3 -9.9 -9.999  71.9 -99.99  5.40
2019/09/17 10:24 EDT  -99.99 -99.99    5  337    9  84.7 -99.9 1016.3 -9.9 -9.999  71.1 -99.99  5.40
2019/09/17 10:30 EDT  -99.99 -99.99    7  332   10  85.1 -99.9 1016.3 -9.9 -9.999  69.4 -99.99  5.40
2019/09/17 10:36 EDT  -99.99 -99.99    5  355    7  85.1 -99.9 1016.3 -9.9 -9.999  67.1 -99.99  5.40
2019/09/17 10:42 EDT  -99.99 -99.99    5  348    8  84.6 -99.9 1016.3 -9.9 -9.999  68.2 -99.99  5.40
2019/09/17 10:48 EDT  -99.99 -99.99    5  333    7  84.6 -99.9 1016.4 -9.9 -9.999  68.0 -99.99  5.40
2019/09/17 10:54 EDT  -99.99 -99.99    6  335    8  84.9 -99.9 1016.4 -9.9 -9.999  67.1 -99.99  5.40
2019/09/17 11:00 EDT  -99.99 -99.99    4  328    7  84.7 -99.9 1016.4 -9.9 -9.999  67.2 -99.99  5.40
2019/09/17 11:06 EDT  -99.99 -99.99    5    4    7  86.0 -99.9 1016.4 -9.9 -9.999  65.6 -99.99  5.40
2019/09/17 11:12 EDT  -99.99 -99.99    6  340    8  85.5 -99.9 1016.5 -9.9 -9.999  65.5 -99.99  5.40
2019/09/17 11:18 EDT  -99.99 -99.99    5  334    7  85.8 -99.9 1016.5 -9.9 -9.999  62.5 -99.99  5.40
2019/09/17 11:24 EDT  -99.99 -99.99    6  359   10  86.0 -99.9 1016.5 -9.9 -9.999  63.7 -99.99  5.40
2019/09/17 11:30 EDT  -99.99 -99.99    6   12   10  85.8 -99.9 1016.4 -9.9 -9.999  61.8 -99.99  5.40
2019/09/17 11:36 EDT  -99.99 -99.99    9   16   11  86.5 -99.9 1016.5 -9.9 -9.999  61.4 -99.99  5.40
2019/09/17 11:42 EDT  -99.99 -99.99    7   30   11  86.0 -99.9 1016.4 -9.9 -9.999  59.9 -99.99  5.40
2019/09/17 11:48 EDT  -99.99 -99.99    6   19   10  86.5 -99.9 1016.3 -9.9 -9.999  60.4 -99.99  5.40
2019/09/17 11:54 EDT  -99.99 -99.99    8    2   11  86.7 -99.9 1016.2 -9.9 -9.999  60.8 -99.99  5.40
2019/09/17 12:00 EDT  -99.99 -99.99    6    7   11  87.8 -99.9 1016.2 -9.9 -9.999  56.3 -99.99  5.40
2019/09/17 12:06 EDT  -99.99 -99.99    6    0    7  88.2 -99.9 1016.3 -9.9 -9.999  56.1 -99.99  5.40
2019/09/17 12:12 EDT  -99.99 -99.99    9    9   14  88.0 -99.9 1016.3 -9.9 -9.999  56.5 -99.99  5.40
2019/09/17 12:18 EDT  -99.99 -99.99    9   12   12  88.5 -99.9 1016.2 -9.9 -9.999  49.8 -99.99  5.40
2019/09/17 12:24 EDT  -99.99 -99.99    8  358   11  88.3 -99.9 1016.2 -9.9 -9.999  50.6 -99.99  5.40
2019/09/17 12:30 EDT  -99.99 -99.99   11    9   13  89.2 -99.9 1016.2 -9.9 -9.999  47.8 -99.99  5.40
2019/09/17 12:36 EDT  -99.99 -99.99    9   10   13  88.9 -99.9 1016.2 -9.9 -9.999  45.5 -99.99  5.40
2019/09/17 12:42 EDT  -99.99 -99.99   10   17   12  89.1 -99.9 1016.1 -9.9 -9.999  46.2 -99.99  5.40
2019/09/17 12:48 EDT  -99.99 -99.99   11   12   14  89.2 -99.9 1016.1 -9.9 -9.999  44.1 -99.99  5.40
2019/09/17 12:54 EDT  -99.99 -99.99   11    8   14  89.2 -99.9 1016.0 -9.9 -9.999  43.9 -99.99  5.40
2019/09/17 13:00 EDT  -99.99 -99.99   10    6   12  89.6 -99.9 1016.0 -9.9 -9.999  43.6 -99.99  5.40
2019/09/17 13:06 EDT  -99.99 -99.99    9    9   14  89.6 -99.9 1016.0 -9.9 -9.999  44.7 -99.99  5.40
2019/09/17 13:12 EDT  -99.99 -99.99    9    9   12  89.8 -99.9 1016.0 -9.9 -9.999  46.4 -99.99  5.40
2019/09/17 13:18 EDT  -99.99 -99.99    9   13   12  89.6 -99.9 1016.0 -9.9 -9.999  47.9 -99.99  5.40
2019/09/17 13:24 EDT  -99.99 -99.99    8    8   11  89.4 -99.9 1015.9 -9.9 -9.999  47.7 -99.99  5.40
2019/09/17 13:30 EDT  -99.99 -99.99    6  354   14  90.0 -99.9 1015.9 -9.9 -9.999  46.3 -99.99  5.40
2019/09/17 13:36 EDT  -99.99 -99.99    8  352   11  90.1 -99.9 1015.9 -9.9 -9.999  45.1 -99.99  5.40
2019/09/17 13:42 EDT  -99.99 -99.99    9   11   12  90.7 -99.9 1015.8 -9.9 -9.999  43.7 -99.99  5.40
2019/09/17 13:48 EDT  -99.99 -99.99   10    8   12  90.1 -99.9 1015.7 -9.9 -9.999  45.3 -99.99  5.40
2019/09/17 13:54 EDT  -99.99 -99.99    9    1   12  90.3 -99.9 1015.7 -9.9 -9.999  44.2 -99.99  5.40
2019/09/17 14:00 EDT  -99.99 -99.99    8  357   12  91.2 -99.9 1015.6 -9.9 -9.999  43.6 -99.99  5.40
2019/09/17 14:06 EDT  -99.99 -99.99    7   12   11  90.9 -99.9 1015.6 -9.9 -9.999  43.4 -99.99  5.40
2019/09/17 14:12 EDT  -99.99 -99.99    9    6   12  90.5 -99.9 1015.6 -9.9 -9.999  45.2 -99.99  5.40
2019/09/17 14:18 EDT  -99.99 -99.99    9   30   12  90.9 -99.9 1015.6 -9.9 -9.999  44.4 -99.99  5.40
2019/09/17 14:24 EDT  -99.99 -99.99    9   52   13  90.1 -99.9 1015.7 -9.9 -9.999  46.7 -99.99  5.40
2019/09/17 14:30 EDT  -99.99 -99.99    9   51   11  90.0 -99.9 1015.6 -9.9 -9.999  48.6 -99.99  5.40
2019/09/17 14:36 EDT  -99.99 -99.99    8   59   11  89.8 -99.9 1015.6 -9.9 -9.999  52.3 -99.99  5.40
2019/09/17 14:42 EDT  -99.99 -99.99    8   47   10  90.1 -99.9 1015.6 -9.9 -9.999  53.5 -99.99  5.40
2019/09/17 14:48 EDT  -99.99 -99.99    8   62   10  89.4 -99.9 1015.6 -9.9 -9.999  54.2 -99.99  5.40
2019/09/17 14:54 EDT  -99.99 -99.99    8   52   11  89.8 -99.9 1015.5 -9.9 -9.999  53.9 -99.99  5.40
2019/09/17 15:00 EDT  -99.99 -99.99    8   49   11  89.6 -99.9 1015.4 -9.9 -9.999  53.0 -99.99  5.40
2019/09/17 15:06 EDT  -99.99 -99.99   10   52   13  89.8 -99.9 1015.3 -9.9 -9.999  49.0 -99.99  5.40
2019/09/17 15:12 EDT  -99.99 -99.99   10   36   12  89.4 -99.9 1015.3 -9.9 -9.999  47.2 -99.99  5.40
2019/09/17 15:18 EDT  -99.99 -99.99   11   47   14  89.6 -99.9 1015.3 -9.9 -9.999  44.7 -99.99  5.40
2019/09/17 15:24 EDT  -99.99 -99.99    9   40   12  89.6 -99.9 1015.3 -9.9 -9.999  45.2 -99.99  5.40
2019/09/17 15:30 EDT  -99.99 -99.99   11   44   14  89.1 -99.9 1015.2 -9.9 -9.999  49.9 -99.99  5.40
2019/09/17 15:36 EDT  -99.99 -99.99    9   45   12  89.8 -99.9 1015.2 -9.9 -9.999  39.3 -99.99  5.40
2019/09/17 15:42 EDT  -99.99 -99.99    9   35   14  89.8 -99.9 1015.2 -9.9 -9.999  42.8 -99.99  5.40
2019/09/17 15:48 EDT  -99.99 -99.99   11   46   14  89.8 -99.9 1015.1 -9.9 -9.999  41.6 -99.99  5.40
2019/09/17 15:54 EDT  -99.99 -99.99    9   41   13  89.8 -99.9 1015.0 -9.9 -9.999  38.9 -99.99  5.40
2019/09/17 16:00 EDT  -99.99 -99.99    9   31   14  89.6 -99.9 1015.0 -9.9 -9.999  43.2 -99.99  5.40
2019/09/17 16:06 EDT  -99.99 -99.99    8   51   13  89.4 -99.9 1015.0 -9.9 -9.999  42.1 -99.99  5.40
2019/09/17 16:12 EDT  -99.99 -99.99    9   46   12  89.6 -99.9 1015.0 -9.9 -9.999  43.5 -99.99  5.40
2019/09/17 16:18 EDT  -99.99 -99.99   10   50   12  89.2 -99.9 1015.0 -9.9 -9.999  44.7 -99.99  5.40
2019/09/17 16:24 EDT  -99.99 -99.99    9   41   12  89.1 -99.9 1014.9 -9.9 -9.999  42.9 -99.99  5.40
2019/09/17 16:30 EDT  -99.99 -99.99   10   39   12  89.1 -99.9 1015.0 -9.9 -9.999  44.8 -99.99  5.40
2019/09/17 16:36 EDT  -99.99 -99.99    8   39   13  88.7 -99.9 1014.9 -9.9 -9.999  41.5 -99.99  5.40
2019/09/17 16:42 EDT  -99.99 -99.99    8   40   10  88.5 -99.9 1014.9 -9.9 -9.999  46.5 -99.99  5.40
2019/09/17 16:48 EDT  -99.99 -99.99    7   50   10  88.9 -99.9 1014.9 -9.9 -9.999  46.0 -99.99  5.40
2019/09/17 16:54 EDT  -99.99 -99.99    6   47    9  88.7 -99.9 1014.8 -9.9 -9.999  45.7 -99.99  5.40
2019/09/17 17:00 EDT  -99.99 -99.99    8   30   11  89.1 -99.9 1014.7 -9.9 -9.999  46.0 -99.99  5.40
2019/09/17 17:06 EDT  -99.99 -99.99    9   47   11  88.9 -99.9 1014.7 -9.9 -9.999  40.9 -99.99  5.40
2019/09/17 17:12 EDT  -99.99 -99.99    8   51   11  88.7 -99.9 1014.7 -9.9 -9.999  40.4 -99.99  5.40
2019/09/17 17:18 EDT  -99.99 -99.99    8   45   10  88.3 -99.9 1014.7 -9.9 -9.999  41.8 -99.99  5.40
2019/09/17 17:24 EDT  -99.99 -99.99    7   47   10  88.7 -99.9 1014.8 -9.9 -9.999  38.6 -99.99  5.40
2019/09/17 17:30 EDT  -99.99 -99.99    7   48    9  88.5 -99.9 1014.7 -9.9 -9.999  42.5 -99.99  5.40
2019/09/17 17:36 EDT  -99.99 -99.99    7   41    9  88.3 -99.9 1014.8 -9.9 -9.999  43.2 -99.99  5.40
2019/09/17 17:42 EDT  -99.99 -99.99    7   36    9  88.2 -99.9 1014.8 -9.9 -9.999  42.0 -99.99  5.40
2019/09/17 17:48 EDT  -99.99 -99.99    6   47    9  88.0 -99.9 1014.7 -9.9 -9.999  42.7 -99.99  5.40
2019/09/17 17:54 EDT  -99.99 -99.99    6   46    8  88.0 -99.9 1014.7 -9.9 -9.999  42.5 -99.99  5.40
2019/09/17 18:00 EDT  -99.99 -99.99    6   41    7  88.0 -99.9 1014.7 -9.9 -9.999  44.1 -99.99  5.40
2019/09/17 18:06 EDT  -99.99 -99.99    6   54    7  88.0 -99.9 1014.7 -9.9 -9.999  43.9 -99.99  5.40
2019/09/17 18:12 EDT  -99.99 -99.99    6   41    7  88.0 -99.9 1014.8 -9.9 -9.999  40.3 -99.99  5.40
2019/09/17 18:18 EDT  -99.99 -99.99    5   38    6  87.8 -99.9 1014.8 -9.9 -9.999  41.2 -99.99  5.40
2019/09/17 18:24 EDT  -99.99 -99.99    6   41    7  87.6 -99.9 1014.9 -9.9 -9.999  43.8 -99.99  5.40
2019/09/17 18:30 EDT  -99.99 -99.99    6   55    7  87.4 -99.9 1014.9 -9.9 -9.999  43.2 -99.99  5.40
2019/09/17 18:36 EDT  -99.99 -99.99    5   49    7  87.3 -99.9 1014.9 -9.9 -9.999  44.5 -99.99  5.40
2019/09/17 18:42 EDT  -99.99 -99.99    6   57    7  86.9 -99.9 1014.9 -9.9 -9.999  47.2 -99.99  5.40
2019/09/17 18:48 EDT  -99.99 -99.99    6   52    8  86.5 -99.9 1014.9 -9.9 -9.999  48.1 -99.99  5.40
2019/09/17 18:54 EDT  -99.99 -99.99    6   61    8  86.2 -99.9 1014.9 -9.9 -9.999  47.8 -99.99  5.40
2019/09/17 19:00 EDT  -99.99 -99.99    4   65    6  85.8 -99.9 1014.8 -9.9 -9.999  51.5 -99.99  5.40
2019/09/17 19:06 EDT  -99.99 -99.99    4   69    6  85.3 -99.9 1014.8 -9.9 -9.999  55.1 -99.99  5.40
2019/09/17 19:12 EDT  -99.99 -99.99    5   75    6  84.9 -99.9 1014.7 -9.9 -9.999  52.6 -99.99  5.40
2019/09/17 19:18 EDT  -99.99 -99.99    6   77    7  84.6 -99.9 1014.8 -9.9 -9.999  56.3 -99.99  5.40
2019/09/17 19:24 EDT  -99.99 -99.99    5   79    6  84.0 -99.9 1014.8 -9.9 -9.999  60.1 -99.99  5.40
2019/09/17 19:30 EDT  -99.99 -99.99    6   83    7  83.7 -99.9 1014.8 -9.9 -9.999  62.2 -99.99  5.40
2019/09/17 19:36 EDT  -99.99 -99.99    6   81    7  83.5 -99.9 1014.9 -9.9 -9.999  64.8 -99.99  5.40
2019/09/17 19:42 EDT  -99.99 -99.99    5   82    7  83.1 -99.9 1014.9 -9.9 -9.999  66.5 -99.99  5.40
2019/09/17 19:48 EDT  -99.99 -99.99    3  114    7  82.9 -99.9 1014.8 -9.9 -9.999  68.2 -99.99  5.40
2019/09/17 19:54 EDT  -99.99 -99.99    3  122    5  83.1 -99.9 1014.8 -9.9 -9.999  70.9 -99.99  5.40
2019/09/17 20:00 EDT  -99.99 -99.99    4  114    5  83.3 -99.9 1014.8 -9.9 -9.999  71.9 -99.99  5.40
2019/09/17 20:06 EDT  -99.99 -99.99    4  112    5  83.1 -99.9 1014.8 -9.9 -9.999  72.7 -99.99  5.40
2019/09/17 20:12 EDT  -99.99 -99.99    3  117    5  82.8 -99.9 1014.9 -9.9 -9.999  73.7 -99.99  5.40
2019/09/17 20:18 EDT  -99.99 -99.99    3  118    4  82.8 -99.9 1015.0 -9.9 -9.999  74.1 -99.99  5.40
2019/09/17 20:24 EDT  -99.99 -99.99    3  129    4  82.6 -99.9 1015.0 -9.9 -9.999  74.5 -99.99  5.40
2019/09/17 20:30 EDT  -99.99 -99.99    2  124    3  82.6 -99.9 1015.1 -9.9 -9.999  75.2 -99.99  5.40
2019/09/17 20:36 EDT  -99.99 -99.99    2  131    2  82.6 -99.9 1015.1 -9.9 -9.999  76.4 -99.99  5.40
2019/09/17 20:42 EDT  -99.99 -99.99    2  113    3  82.2 -99.9 1015.1 -9.9 -9.999  77.6 -99.99  5.40
2019/09/17 20:48 EDT  -99.99 -99.99    2  131    3  82.2 -99.9 1015.1 -9.9 -9.999  79.4 -99.99  5.40
2019/09/17 20:54 EDT  -99.99 -99.99    3  120    3  81.9 -99.9 1015.2 -9.9 -9.999  79.5 -99.99  5.40
2019/09/17 21:00 EDT  -99.99 -99.99    3  112    3  81.9 -99.9 1015.3 -9.9 -9.999  80.4 -99.99  5.40
2019/09/17 21:06 EDT  -99.99 -99.99    3  119    4  81.9 -99.9 1015.3 -9.9 -9.999  82.0 -99.99  5.40
2019/09/17 21:12 EDT  -99.99 -99.99    3  123    3  81.5 -99.9 1015.4 -9.9 -9.999  83.8 -99.99  5.40
2019/09/17 21:18 EDT  -99.99 -99.99    3  112    4  81.5 -99.9 1015.4 -9.9 -9.999  84.3 -99.99  5.40
2019/09/17 21:24 EDT  -99.99 -99.99    3  121    5  81.3 -99.9 1015.4 -9.9 -9.999  84.6 -99.99  5.40
2019/09/17 21:30 EDT  -99.99 -99.99    3  111    4  81.3 -99.9 1015.4 -9.9 -9.999  85.2 -99.99  5.40
2019/09/17 21:36 EDT  -99.99 -99.99    3  117    4  81.3 -99.9 1015.4 -9.9 -9.999  86.0 -99.99  5.40
2019/09/17 21:42 EDT  -99.99 -99.99    3  121    4  81.3 -99.9 1015.5 -9.9 -9.999  86.1 -99.99  5.40
2019/09/17 21:48 EDT  -99.99 -99.99    3  125    4  81.3 -99.9 1015.6 -9.9 -9.999  85.4 -99.99  5.40
2019/09/17 21:54 EDT  -99.99 -99.99    3  126    4  81.1 -99.9 1015.6 -9.9 -9.999  84.5 -99.99  5.40
2019/09/17 22:00 EDT  -99.99 -99.99    3  135    4  81.3 -99.9 1015.6 -9.9 -9.999  84.9 -99.99  5.40
2019/09/17 22:06 EDT  -99.99 -99.99    3  124    4  81.0 -99.9 1015.7 -9.9 -9.999  84.8 -99.99  5.40
2019/09/17 22:12 EDT  -99.99 -99.99    4  119    4  81.0 -99.9 1015.7 -9.9 -9.999  85.7 -99.99  5.40
2019/09/17 22:18 EDT  -99.99 -99.99    4  113    5  80.8 -99.9 1015.7 -9.9 -9.999  86.6 -99.99  5.40
2019/09/17 22:24 EDT  -99.99 -99.99    5  115    5  80.8 -99.9 1015.7 -9.9 -9.999  87.2 -99.99  5.40
2019/09/17 22:30 EDT  -99.99 -99.99    4  114    5  81.0 -99.9 1015.7 -9.9 -9.999  87.6 -99.99  5.40
2019/09/17 22:36 EDT  -99.99 -99.99    4  114    6  80.8 -99.9 1015.8 -9.9 -9.999  87.2 -99.99  5.40
2019/09/17 22:42 EDT  -99.99 -99.99    4  118    5  81.1 -99.9 1015.8 -9.9 -9.999  86.6 -99.99  5.40
2019/09/17 22:48 EDT  -99.99 -99.99    4  123    5  81.0 -99.9 1015.9 -9.9 -9.999  86.0 -99.99  5.40
2019/09/17 22:54 EDT  -99.99 -99.99    3  114    4  81.0 -99.9 1015.9 -9.9 -9.999  86.3 -99.99  5.40
2019/09/17 23:00 EDT  -99.99 -99.99    3  121    4  81.0 -99.9 1015.9 -9.9 -9.999  86.6 -99.99  5.40
2019/09/17 23:06 EDT  -99.99 -99.99    2  138    3  80.8 -99.9 1015.9 -9.9 -9.999  87.0 -99.99  5.40
2019/09/17 23:12 EDT  -99.99 -99.99    2  136    4  80.8 -99.9 1015.9 -9.9 -9.999  87.4 -99.99  5.40
2019/09/17 23:18 EDT  -99.99 -99.99    2  142    3  80.8 -99.9 1015.9 -9.9 -9.999  87.8 -99.99  5.40
2019/09/17 23:24 EDT  -99.99 -99.99    2  147    3  80.8 -99.9 1015.9 -9.9 -9.999  88.6 -99.99  5.40
2019/09/17 23:30 EDT  -99.99 -99.99    3  153    3  80.6 -99.9 1015.9 -9.9 -9.999  89.2 -99.99  5.40
2019/09/17 23:36 EDT  -99.99 -99.99    3  152    3  80.4 -99.9 1015.9 -9.9 -9.999  90.2 -99.99  5.40
2019/09/17 23:42 EDT  -99.99 -99.99    2  158    3  80.2 -99.9 1015.8 -9.9 -9.999  91.1 -99.99  5.40
2019/09/17 23:48 EDT  -99.99 -99.99    2  150    2  80.1 -99.9 1015.8 -9.9 -9.999  91.5 -99.99  5.40
2019/09/17 23:54 EDT  -99.99 -99.99    2  133    2  80.2 -99.9 1015.8 -9.9 -9.999  92.0 -99.99  5.40
2019/09/18 00:00 EDT  -99.99 -99.99    3  116    3  80.2 -99.9 1015.8 -9.9 -9.999  92.0 -99.99  5.40
2019/09/18 00:06 EDT  -99.99 -99.99    2  132    3  80.2 -99.9 1015.8 -9.9 -9.999  92.0 -99.99  5.40
2019/09/18 00:12 EDT  -99.99 -99.99    2  152    3  80.2 -99.9 1015.8 -9.9 -9.999  93.0 -99.99  5.40
2019/09/18 00:18 EDT  -99.99 -99.99    2  137    3  80.1 -99.9 1015.7 -9.9 -9.999  93.2 -99.99  5.40
2019/09/18 00:24 EDT  -99.99 -99.99    2  137    3  80.2 -99.9 1015.7 -9.9 -9.999  93.0 -99.99  5.40
2019/09/18 00:30 EDT  -99.99 -99.99    2  154    3  80.2 -99.9 1015.7 -9.9 -9.999  93.0 -99.99  5.40
2019/09/18 00:36 EDT  -99.99 -99.99    2  138    3  80.4 -99.9 1015.7 -9.9 -9.999  93.2 -99.99  5.40
2019/09/18 00:42 EDT  -99.99 -99.99    3  163    3  80.4 -99.9 1015.6 -9.9 -9.999  93.3 -99.99  5.40
2019/09/18 00:48 EDT  -99.99 -99.99    2  165    3  80.2 -99.9 1015.5 -9.9 -9.999  93.2 -99.99  5.40
2019/09/18 00:54 EDT  -99.99 -99.99    3  154    4  80.4 -99.9 1015.6 -9.9 -9.999  93.9 -99.99  5.40
2019/09/18 01:00 EDT  -99.99 -99.99    3  135    4  80.1 -99.9 1015.6 -9.9 -9.999  93.8 -99.99  5.40
2019/09/18 01:06 EDT  -99.99 -99.99    2  168    3  80.2 -99.9 1015.6 -9.9 -9.999  94.7 -99.99  5.40
2019/09/18 01:12 EDT  -99.99 -99.99    2  200    2  80.2 -99.9 1015.7 -9.9 -9.999  94.4 -99.99  5.40
2019/09/18 01:18 EDT  -99.99 -99.99    2  196    2  80.2 -99.9 1015.7 -9.9 -9.999  95.0 -99.99  5.40
2019/09/18 01:24 EDT  -99.99 -99.99    2  182    3  80.1 -99.9 1015.7 -9.9 -9.999  95.3 -99.99  5.40
2019/09/18 01:30 EDT  -99.99 -99.99    1  150    2  79.9 -99.9 1015.7 -9.9 -9.999  95.5 -99.99  5.40
2019/09/18 01:36 EDT  -99.99 -99.99    1  143    2  79.9 -99.9 1015.8 -9.9 -9.999  95.7 -99.99  5.40
2019/09/18 01:42 EDT  -99.99 -99.99    1  147    1  79.9 -99.9 1015.7 -9.9 -9.999  96.3 -99.99  5.40
2019/09/18 01:48 EDT  -99.99 -99.99    1  139    1  79.9 -99.9 1015.7 -9.9 -9.999  96.8 -99.99  5.40
2019/09/18 01:54 EDT  -99.99 -99.99    2  106    3  80.1 -99.9 1015.7 -9.9 -9.999  97.4 -99.99  5.40
2019/09/18 02:00 EDT  -99.99 -99.99    2   94    2  79.7 -99.9 1015.7 -9.9 -9.999  97.3 -99.99  5.40
2019/09/18 02:06 EDT  -99.99 -99.99    1  107    2  79.9 -99.9 1015.7 -9.9 -9.999  97.4 -99.99  5.40
2019/09/18 02:12 EDT  -99.99 -99.99    2  152    3  80.1 -99.9 1015.6 -9.9 -9.999  97.7 -99.99  5.40
2019/09/18 02:18 EDT  -99.99 -99.99    2  155    3  80.4 -99.9 1015.4 -9.9 -9.999  97.6 -99.99  5.40
2019/09/18 02:24 EDT  -99.99 -99.99    3  165    3  80.4 -99.9 1015.4 -9.9 -9.999  97.0 -99.99  5.40
2019/09/18 02:30 EDT  -99.99 -99.99    2  158    3  80.2 -99.9 1015.3 -9.9 -9.999  97.0 -99.99  5.40
2019/09/18 02:36 EDT  -99.99 -99.99    2  165    3  80.2 -99.9 1015.3 -9.9 -9.999  97.4 -99.99  5.40
2019/09/18 02:42 EDT  -99.99 -99.99    2  167    2  80.1 -99.9 1015.3 -9.9 -9.999  97.6 -99.99  5.40
2019/09/18 02:48 EDT  -99.99 -99.99    2  187    3  80.1 -99.9 1015.3 -9.9 -9.999  97.8 -99.99  5.40
2019/09/18 02:54 EDT  -99.99 -99.99    3  192    3  80.1 -99.9 1015.2 -9.9 -9.999  97.9 -99.99  5.40
2019/09/18 03:00 EDT  -99.99 -99.99    2  185    3  80.2 -99.9 1015.2 -9.9 -9.999  98.8 -99.99  5.40
2019/09/18 03:06 EDT  -99.99 -99.99    2  191    3  80.1 -99.9 1015.2 -9.9 -9.999  99.9 -99.99  5.40
2019/09/18 03:12 EDT  -99.99 -99.99    3  212    3  80.1 -99.9 1015.2 -9.9 -9.999  99.8 -99.99  5.40
2019/09/18 03:18 EDT  -99.99 -99.99    3  245    4  80.2 -99.9 1015.2 -9.9 -9.999 100.0 -99.99  5.40
2019/09/18 03:24 EDT  -99.99 -99.99    3  248    4  79.9 -99.9 1015.2 -9.9 -9.999 100.0 -99.99  5.40
2019/09/18 03:30 EDT  -99.99 -99.99    2  258    3  79.5 -99.9 1015.2 -9.9 -9.999 100.0 -99.99  5.40
2019/09/18 03:36 EDT  -99.99 -99.99    1  264    2  79.9 -99.9 1015.2 -9.9 -9.999 100.0 -99.99  5.40
2019/09/18 03:42 EDT  -99.99 -99.99    3  179    3  79.9 -99.9 1015.1 -9.9 -9.999 100.0 -99.99  5.40
2019/09/18 03:48 EDT  -99.99 -99.99    1  175    2  80.1 -99.9 1015.2 -9.9 -9.999 100.0 -99.99  5.40
2019/09/18 03:54 EDT  -99.99 -99.99    1  184    2  79.9 -99.9 1015.3 -9.9 -9.999 100.0 -99.99  5.40
2019/09/18 04:00 EDT  -99.99 -99.99    1  212    2  79.9 -99.9 1015.2 -9.9 -9.999 100.0 -99.99  5.40
2019/09/18 04:06 EDT  -99.99 -99.99    1  238    2  80.1 -99.9 1015.2 -9.9 -9.999 100.0 -99.99  5.40
2019/09/18 04:12 EDT  -99.99 -99.99    2  236    3  79.9 -99.9 1015.3 -9.9 -9.999 100.0 -99.99  5.40
2019/09/18 04:18 EDT  -99.99 -99.99    2  237    3  79.9 -99.9 1015.3 -9.9 -9.999 100.0 -99.99  5.40
2019/09/18 04:24 EDT  -99.99 -99.99    3  224    3  79.7 -99.9 1015.2 -9.9 -9.999 100.0 -99.99  5.40
2019/09/18 04:30 EDT  -99.99 -99.99    3  257    3  80.1 -99.9 1015.3 -9.9 -9.999 100.0 -99.99  5.40
2019/09/18 04:36 EDT  -99.99 -99.99    3  248    3  79.5 -99.9 1015.4 -9.9 -9.999 100.0 -99.99  5.40
2019/09/18 04:42 EDT  -99.99 -99.99    3  268    3  79.5 -99.9 1015.4 -9.9 -9.999 100.0 -99.99  5.40
2019/09/18 04:48 EDT  -99.99 -99.99    3  255    3  79.7 -99.9 1015.4 -9.9 -9.999 100.0 -99.99  5.40
2019/09/18 04:54 EDT  -99.99 -99.99    1  231    2  79.7 -99.9 1015.3 -9.9 -9.999 100.0 -99.99  5.40
2019/09/18 05:00 EDT  -99.99 -99.99    2  225    4  80.1 -99.9 1015.4 -9.9 -9.999 100.0 -99.99  5.40
2019/09/18 05:06 EDT  -99.99 -99.99    2  269    3  79.9 -99.9 1015.4 -9.9 -9.999 100.0 -99.99  5.40
2019/09/18 05:12 EDT  -99.99 -99.99    2  317    2  79.5 -99.9 1015.5 -9.9 -9.999 100.0 -99.99  5.40
2019/09/18 05:18 EDT  -99.99 -99.99    2  296    2  79.7 -99.9 1015.5 -9.9 -9.999 100.0 -99.99  5.40
2019/09/18 05:24 EDT  -99.99 -99.99    2  304    2  79.7 -99.9 1015.5 -9.9 -9.999 100.0 -99.99  5.40
2019/09/18 05:30 EDT  -99.99 -99.99    2  300    3  79.9 -99.9 1015.5 -9.9 -9.999 100.0 -99.99  5.40
2019/09/18 05:36 EDT  -99.99 -99.99    3  310    3  79.7 -99.9 1015.5 -9.9 -9.999 100.0 -99.99  5.40
2019/09/18 05:42 EDT  -99.99 -99.99    3  300    4  79.7 -99.9 1015.6 -9.9 -9.999 100.0 -99.99  5.40
2019/09/18 05:48 EDT  -99.99 -99.99    3  318    4  79.3 -99.9 1015.7 -9.9 -9.999 100.0 -99.99  5.40
2019/09/18 05:54 EDT  -99.99 -99.99    3  309    4  79.2 -99.9 1015.7 -9.9 -9.999 100.0 -99.99  5.40
2019/09/18 06:00 EDT  -99.99 -99.99    3  310    4  79.0 -99.9 1015.7 -9.9 -9.999 100.0 -99.99  5.40
2019/09/18 06:06 EDT  -99.99 -99.99    3  306    4  78.8 -99.9 1015.8 -9.9 -9.999 100.0 -99.99  5.40
2019/09/18 06:12 EDT  -99.99 -99.99    3  304    4  78.6 -99.9 1015.9 -9.9 -9.999 100.0 -99.99  5.40
2019/09/18 06:18 EDT  -99.99 -99.99    3  307    4  78.6 -99.9 1015.9 -9.9 -9.999 100.0 -99.99  5.40
2019/09/18 06:24 EDT  -99.99 -99.99    3  299    4  78.4 -99.9 1016.0 -9.9 -9.999 100.0 -99.99  5.40
2019/09/18 06:30 EDT  -99.99 -99.99    2  292    4  78.4 -99.9 1016.0 -9.9 -9.999 100.0 -99.99  5.40
2019/09/18 06:36 EDT  -99.99 -99.99    2  280    3  78.3 -99.9 1016.1 -9.9 -9.999 100.0 -99.99  5.40
2019/09/18 06:42 EDT  -99.99 -99.99    2  277    4  78.3 -99.9 1016.1 -9.9 -9.999 100.0 -99.99  5.40
2019/09/18 06:48 EDT  -99.99 -99.99    2  289    3  78.3 -99.9 1016.2 -9.9 -9.999 100.0 -99.99  5.40
2019/09/18 06:54 EDT  -99.99 -99.99    2  284    3  78.3 -99.9 1016.2 -9.9 -9.999 100.0 -99.99  5.40
2019/09/18 07:00 EDT  -99.99 -99.99    1  287    2  78.3 -99.9 1016.2 -9.9 -9.999 100.0 -99.99  5.40
2019/09/18 07:06 EDT  -99.99 -99.99    2  299    2  78.3 -99.9 1016.3 -9.9 -9.999 100.0 -99.99  5.40
2019/09/18 07:12 EDT  -99.99 -99.99    2  285    3  78.4 -99.9 1016.3 -9.9 -9.999 100.0 -99.99  5.40
2019/09/18 07:18 EDT  -99.99 -99.99    2  276    3  78.4 -99.9 1016.3 -9.9 -9.999 100.0 -99.99  5.40
2019/09/18 07:24 EDT  -99.99 -99.99    2  285    3  78.4 -99.9 1016.4 -9.9 -9.999 100.0 -99.99  5.40
2019/09/18 07:30 EDT  -99.99 -99.99    2  270    2  78.4 -99.9 1016.4 -9.9 -9.999 100.0 -99.99  5.40
2019/09/18 07:36 EDT  -99.99 -99.99    2  236    3  78.6 -99.9 1016.4 -9.9 -9.999 100.0 -99.99  5.40
2019/09/18 07:42 EDT  -99.99 -99.99    4  204    4  78.8 -99.9 1016.3 -9.9 -9.999 100.0 -99.99  5.40
2019/09/18 07:48 EDT  -99.99 -99.99    3  215    4  79.2 -99.9 1016.3 -9.9 -9.999 100.0 -99.99  5.40
2019/09/18 07:54 EDT  -99.99 -99.99    3  253    3  79.0 -99.9 1016.3 -9.9 -9.999 100.0 -99.99  5.40
2019/09/18 08:00 EDT  -99.99 -99.99    2  247    3  78.6 -99.9 1016.5 -9.9 -9.999 100.0 -99.99  5.40
2019/09/18 08:06 EDT  -99.99 -99.99    2  225    3  78.4 -99.9 1016.5 -9.9 -9.999 100.0 -99.99  5.40
2019/09/18 08:12 EDT  -99.99 -99.99 -999 -999 -999 -99.9 -99.9 -999.9 -9.9 -9.999 -99.9 -99.99 -9.99
2019/09/18 08:18 EDT  -99.99 -99.99 -999 -999 -999 -99.9 -99.9 -999.9 -9.9 -9.999 -99.9 -99.99 -9.99